<?xml version="1.0" encoding="UTF-8" standalone="no" ?>
<gpx xmlns="http://www.topografix.com/GPX/1/1" xmlns:xsi="http://www.w3.org/2001/XMLSchema-instance" xsi:schemaLocation="http://www.topografix.com/GPX/1/1 http://www.topografix.com/GPX/1/1/gpx.xsd" version="1.1" creator="VisuGPX - https://www.visugpx.com">
  <metadata>
    <name>Kergoat / Locronan</name>
    <desc><![CDATA[Départ parking en face de l'église sous les arbres, pour cette randonnée quasiment sans voiture, qui emprunte en partie le circuit de la Troménie dans la campagne de Locronan.
hervé]]></desc>
  </metadata>
  <trk>
    <name><![CDATA[Kergoat/ Locronan 27/12/2018]]></name>
    <trkseg>
      <trkpt lat="48.11381" lon="-4.16845">
        <ele>133</ele>
        <time>2018-12-27T13:42:27Z</time>
      </trkpt>
      <trkpt lat="48.1147" lon="-4.17131">
        <ele>131</ele>
      </trkpt>
      <trkpt lat="48.11736" lon="-4.1728">
        <ele>121</ele>
      </trkpt>
      <trkpt lat="48.12021" lon="-4.17495">
        <ele>113</ele>
      </trkpt>
      <trkpt lat="48.1204" lon="-4.17787">
        <ele>113</ele>
      </trkpt>
      <trkpt lat="48.12" lon="-4.18135">
        <ele>120</ele>
      </trkpt>
      <trkpt lat="48.12053" lon="-4.1848">
        <ele>124</ele>
      </trkpt>
      <trkpt lat="48.11728" lon="-4.1873">
        <ele>111</ele>
      </trkpt>
      <trkpt lat="48.11685" lon="-4.18655">
        <ele>112</ele>
      </trkpt>
      <trkpt lat="48.10931" lon="-4.18893">
        <ele>103</ele>
      </trkpt>
      <trkpt lat="48.10907" lon="-4.19076">
        <ele>98</ele>
        <time>2018-12-27T13:42:47Z</time>
      </trkpt>
      <trkpt lat="48.10906" lon="-4.191">
        <ele>96</ele>
        <time>2018-12-27T13:43:05Z</time>
      </trkpt>
      <trkpt lat="48.10896" lon="-4.19139">
        <ele>95</ele>
        <time>2018-12-27T13:43:31Z</time>
      </trkpt>
      <trkpt lat="48.1089" lon="-4.1914">
        <ele>94</ele>
        <time>2018-12-27T13:43:36Z</time>
      </trkpt>
      <trkpt lat="48.10862" lon="-4.19135">
        <ele>94</ele>
        <time>2018-12-27T13:44:01Z</time>
      </trkpt>
      <trkpt lat="48.10848" lon="-4.19135">
        <ele>94</ele>
        <time>2018-12-27T13:44:19Z</time>
      </trkpt>
      <trkpt lat="48.10825" lon="-4.19136">
        <ele>93</ele>
        <time>2018-12-27T13:44:46Z</time>
      </trkpt>
      <trkpt lat="48.10815" lon="-4.19145">
        <ele>93</ele>
        <time>2018-12-27T13:44:56Z</time>
      </trkpt>
      <trkpt lat="48.10808" lon="-4.19154">
        <ele>94</ele>
        <time>2018-12-27T13:45:02Z</time>
      </trkpt>
      <trkpt lat="48.10808" lon="-4.1916">
        <ele>93</ele>
        <time>2018-12-27T13:45:07Z</time>
      </trkpt>
      <trkpt lat="48.10808" lon="-4.19167">
        <ele>94</ele>
        <time>2018-12-27T13:45:11Z</time>
      </trkpt>
      <trkpt lat="48.10807" lon="-4.19187">
        <ele>95</ele>
        <time>2018-12-27T13:45:24Z</time>
      </trkpt>
      <trkpt lat="48.10806" lon="-4.19214">
        <ele>95</ele>
        <time>2018-12-27T13:45:37Z</time>
      </trkpt>
      <trkpt lat="48.10802" lon="-4.1925">
        <ele>96</ele>
        <time>2018-12-27T13:45:57Z</time>
      </trkpt>
      <trkpt lat="48.10803" lon="-4.19265">
        <ele>97</ele>
        <time>2018-12-27T13:46:07Z</time>
      </trkpt>
      <trkpt lat="48.10803" lon="-4.19269">
        <ele>97</ele>
        <time>2018-12-27T13:46:10Z</time>
      </trkpt>
      <trkpt lat="48.10801" lon="-4.19279">
        <ele>97</ele>
        <time>2018-12-27T13:46:15Z</time>
      </trkpt>
      <trkpt lat="48.10802" lon="-4.19289">
        <ele>97</ele>
        <time>2018-12-27T13:46:20Z</time>
      </trkpt>
      <trkpt lat="48.108" lon="-4.19327">
        <ele>97</ele>
        <time>2018-12-27T13:46:44Z</time>
      </trkpt>
      <trkpt lat="48.10788" lon="-4.19362">
        <ele>100</ele>
        <time>2018-12-27T13:47:08Z</time>
      </trkpt>
      <trkpt lat="48.10776" lon="-4.19387">
        <ele>101</ele>
        <time>2018-12-27T13:47:26Z</time>
      </trkpt>
      <trkpt lat="48.10769" lon="-4.19396">
        <ele>102</ele>
        <time>2018-12-27T13:47:35Z</time>
      </trkpt>
      <trkpt lat="48.10745" lon="-4.19414">
        <ele>107</ele>
        <time>2018-12-27T13:47:55Z</time>
      </trkpt>
      <trkpt lat="48.10721" lon="-4.19424">
        <ele>109</ele>
        <time>2018-12-27T13:48:19Z</time>
      </trkpt>
      <trkpt lat="48.10702" lon="-4.19429">
        <ele>110</ele>
        <time>2018-12-27T13:48:35Z</time>
      </trkpt>
      <trkpt lat="48.10696" lon="-4.19426">
        <ele>111</ele>
        <time>2018-12-27T13:48:43Z</time>
      </trkpt>
      <trkpt lat="48.10669" lon="-4.19429">
        <ele>112</ele>
        <time>2018-12-27T13:49:04Z</time>
      </trkpt>
      <trkpt lat="48.10665" lon="-4.19426">
        <ele>115</ele>
        <time>2018-12-27T13:49:08Z</time>
      </trkpt>
      <trkpt lat="48.1066" lon="-4.19427">
        <ele>115</ele>
        <time>2018-12-27T13:49:11Z</time>
      </trkpt>
      <trkpt lat="48.10656" lon="-4.19426">
        <ele>116</ele>
        <time>2018-12-27T13:49:15Z</time>
      </trkpt>
      <trkpt lat="48.10653" lon="-4.19427">
        <ele>116</ele>
        <time>2018-12-27T13:49:17Z</time>
      </trkpt>
      <trkpt lat="48.10642" lon="-4.19426">
        <ele>116</ele>
        <time>2018-12-27T13:49:24Z</time>
      </trkpt>
      <trkpt lat="48.10626" lon="-4.19427">
        <ele>117</ele>
        <time>2018-12-27T13:49:38Z</time>
      </trkpt>
      <trkpt lat="48.10612" lon="-4.19425">
        <ele>118</ele>
        <time>2018-12-27T13:49:50Z</time>
      </trkpt>
      <trkpt lat="48.10604" lon="-4.19421">
        <ele>119</ele>
        <time>2018-12-27T13:50:01Z</time>
      </trkpt>
      <trkpt lat="48.10588" lon="-4.19428">
        <ele>120</ele>
        <time>2018-12-27T13:50:22Z</time>
      </trkpt>
      <trkpt lat="48.10585" lon="-4.19428">
        <ele>120</ele>
        <time>2018-12-27T13:50:31Z</time>
      </trkpt>
      <trkpt lat="48.10571" lon="-4.19436">
        <ele>122</ele>
        <time>2018-12-27T13:50:44Z</time>
      </trkpt>
      <trkpt lat="48.10567" lon="-4.19445">
        <ele>122</ele>
        <time>2018-12-27T13:50:50Z</time>
      </trkpt>
      <trkpt lat="48.10564" lon="-4.19461">
        <ele>122</ele>
        <time>2018-12-27T13:51:01Z</time>
      </trkpt>
      <trkpt lat="48.10562" lon="-4.19482">
        <ele>122</ele>
        <time>2018-12-27T13:51:12Z</time>
      </trkpt>
      <trkpt lat="48.10563" lon="-4.19488">
        <ele>122</ele>
        <time>2018-12-27T13:51:28Z</time>
      </trkpt>
      <trkpt lat="48.10564" lon="-4.19493">
        <ele>122</ele>
        <time>2018-12-27T13:51:52Z</time>
      </trkpt>
      <trkpt lat="48.10564" lon="-4.19496">
        <ele>122</ele>
        <time>2018-12-27T13:51:54Z</time>
      </trkpt>
      <trkpt lat="48.1056" lon="-4.19526">
        <ele>122</ele>
        <time>2018-12-27T13:52:15Z</time>
      </trkpt>
      <trkpt lat="48.1056" lon="-4.19528">
        <ele>122</ele>
        <time>2018-12-27T13:52:16Z</time>
      </trkpt>
      <trkpt lat="48.10557" lon="-4.19539">
        <ele>122</ele>
        <time>2018-12-27T13:52:23Z</time>
      </trkpt>
      <trkpt lat="48.10555" lon="-4.19549">
        <ele>122</ele>
        <time>2018-12-27T13:52:28Z</time>
      </trkpt>
      <trkpt lat="48.10555" lon="-4.19554">
        <ele>121</ele>
        <time>2018-12-27T13:52:31Z</time>
      </trkpt>
      <trkpt lat="48.10552" lon="-4.19569">
        <ele>121</ele>
        <time>2018-12-27T13:52:43Z</time>
      </trkpt>
      <trkpt lat="48.10544" lon="-4.19606">
        <ele>122</ele>
        <time>2018-12-27T13:53:03Z</time>
      </trkpt>
      <trkpt lat="48.10541" lon="-4.19623">
        <ele>122</ele>
        <time>2018-12-27T13:53:11Z</time>
      </trkpt>
      <trkpt lat="48.10543" lon="-4.19627">
        <ele>122</ele>
        <time>2018-12-27T13:53:14Z</time>
      </trkpt>
      <trkpt lat="48.10538" lon="-4.19647">
        <ele>122</ele>
        <time>2018-12-27T13:53:28Z</time>
      </trkpt>
      <trkpt lat="48.10533" lon="-4.19677">
        <ele>123</ele>
        <time>2018-12-27T13:53:47Z</time>
      </trkpt>
      <trkpt lat="48.10533" lon="-4.19688">
        <ele>123</ele>
        <time>2018-12-27T13:53:55Z</time>
      </trkpt>
      <trkpt lat="48.10525" lon="-4.19709">
        <ele>123</ele>
        <time>2018-12-27T13:54:10Z</time>
      </trkpt>
      <trkpt lat="48.10517" lon="-4.19746">
        <ele>123</ele>
        <time>2018-12-27T13:54:33Z</time>
      </trkpt>
      <trkpt lat="48.10516" lon="-4.19761">
        <ele>123</ele>
        <time>2018-12-27T13:54:41Z</time>
      </trkpt>
      <trkpt lat="48.1052" lon="-4.19779">
        <ele>123</ele>
        <time>2018-12-27T13:54:52Z</time>
      </trkpt>
      <trkpt lat="48.10542" lon="-4.19792">
        <ele>123</ele>
        <time>2018-12-27T13:55:13Z</time>
      </trkpt>
      <trkpt lat="48.10556" lon="-4.19794">
        <ele>123</ele>
        <time>2018-12-27T13:55:23Z</time>
      </trkpt>
      <trkpt lat="48.10561" lon="-4.19796">
        <ele>123</ele>
        <time>2018-12-27T13:55:34Z</time>
      </trkpt>
      <trkpt lat="48.10578" lon="-4.19805">
        <ele>122</ele>
        <time>2018-12-27T13:55:57Z</time>
      </trkpt>
      <trkpt lat="48.10608" lon="-4.19815">
        <ele>121</ele>
        <time>2018-12-27T13:56:24Z</time>
      </trkpt>
      <trkpt lat="48.10609" lon="-4.19817">
        <ele>121</ele>
        <time>2018-12-27T13:56:25Z</time>
      </trkpt>
      <trkpt lat="48.10624" lon="-4.19855">
        <ele>119</ele>
        <time>2018-12-27T13:56:51Z</time>
      </trkpt>
      <trkpt lat="48.10627" lon="-4.19893">
        <ele>119</ele>
        <time>2018-12-27T13:57:14Z</time>
      </trkpt>
      <trkpt lat="48.10632" lon="-4.1992">
        <ele>118</ele>
        <time>2018-12-27T13:57:33Z</time>
      </trkpt>
      <trkpt lat="48.10639" lon="-4.19939">
        <ele>117</ele>
        <time>2018-12-27T13:57:51Z</time>
      </trkpt>
      <trkpt lat="48.10647" lon="-4.19957">
        <ele>117</ele>
        <time>2018-12-27T13:58:06Z</time>
      </trkpt>
      <trkpt lat="48.10651" lon="-4.19977">
        <ele>117</ele>
        <time>2018-12-27T13:58:20Z</time>
      </trkpt>
      <trkpt lat="48.10654" lon="-4.2">
        <ele>116</ele>
        <time>2018-12-27T13:58:38Z</time>
      </trkpt>
      <trkpt lat="48.1066" lon="-4.20015">
        <ele>116</ele>
        <time>2018-12-27T13:58:50Z</time>
      </trkpt>
      <trkpt lat="48.10664" lon="-4.20054">
        <ele>116</ele>
        <time>2018-12-27T13:59:13Z</time>
      </trkpt>
      <trkpt lat="48.10665" lon="-4.20057">
        <ele>116</ele>
        <time>2018-12-27T13:59:15Z</time>
      </trkpt>
      <trkpt lat="48.10664" lon="-4.20079">
        <ele>115</ele>
        <time>2018-12-27T13:59:30Z</time>
      </trkpt>
      <trkpt lat="48.1066" lon="-4.20106">
        <ele>114</ele>
        <time>2018-12-27T13:59:51Z</time>
      </trkpt>
      <trkpt lat="48.10659" lon="-4.20115">
        <ele>114</ele>
        <time>2018-12-27T13:59:58Z</time>
      </trkpt>
      <trkpt lat="48.10664" lon="-4.20138">
        <ele>114</ele>
        <time>2018-12-27T14:00:15Z</time>
      </trkpt>
      <trkpt lat="48.10669" lon="-4.20166">
        <ele>113</ele>
        <time>2018-12-27T14:00:33Z</time>
      </trkpt>
      <trkpt lat="48.10672" lon="-4.20209">
        <ele>112</ele>
        <time>2018-12-27T14:00:58Z</time>
      </trkpt>
      <trkpt lat="48.10669" lon="-4.20235">
        <ele>111</ele>
        <time>2018-12-27T14:01:19Z</time>
      </trkpt>
      <trkpt lat="48.10675" lon="-4.20263">
        <ele>110</ele>
        <time>2018-12-27T14:01:40Z</time>
      </trkpt>
      <trkpt lat="48.1068" lon="-4.20277">
        <ele>110</ele>
        <time>2018-12-27T14:01:53Z</time>
      </trkpt>
      <trkpt lat="48.10676" lon="-4.2031">
        <ele>110</ele>
        <time>2018-12-27T14:02:13Z</time>
      </trkpt>
      <trkpt lat="48.1068" lon="-4.20323">
        <ele>109</ele>
        <time>2018-12-27T14:02:25Z</time>
      </trkpt>
      <trkpt lat="48.10682" lon="-4.20325">
        <ele>109</ele>
        <time>2018-12-27T14:02:27Z</time>
      </trkpt>
      <trkpt lat="48.10682" lon="-4.20328">
        <ele>109</ele>
        <time>2018-12-27T14:02:29Z</time>
      </trkpt>
      <trkpt lat="48.10682" lon="-4.20332">
        <ele>109</ele>
        <time>2018-12-27T14:02:33Z</time>
      </trkpt>
      <trkpt lat="48.10681" lon="-4.20361">
        <ele>108</ele>
        <time>2018-12-27T14:02:49Z</time>
      </trkpt>
      <trkpt lat="48.10682" lon="-4.20371">
        <ele>108</ele>
        <time>2018-12-27T14:02:56Z</time>
      </trkpt>
      <trkpt lat="48.10684" lon="-4.20378">
        <ele>108</ele>
        <time>2018-12-27T14:03:01Z</time>
      </trkpt>
      <trkpt lat="48.10684" lon="-4.20401">
        <ele>107</ele>
        <time>2018-12-27T14:03:24Z</time>
      </trkpt>
      <trkpt lat="48.10684" lon="-4.20402">
        <ele>107</ele>
        <time>2018-12-27T14:03:25Z</time>
      </trkpt>
      <trkpt lat="48.10685" lon="-4.20417">
        <ele>106</ele>
        <time>2018-12-27T14:03:35Z</time>
      </trkpt>
      <trkpt lat="48.10687" lon="-4.20424">
        <ele>106</ele>
        <time>2018-12-27T14:03:39Z</time>
      </trkpt>
      <trkpt lat="48.1069" lon="-4.20452">
        <ele>106</ele>
        <time>2018-12-27T14:03:56Z</time>
      </trkpt>
      <trkpt lat="48.10692" lon="-4.20469">
        <ele>106</ele>
        <time>2018-12-27T14:04:12Z</time>
      </trkpt>
      <trkpt lat="48.10695" lon="-4.20491">
        <ele>106</ele>
        <time>2018-12-27T14:04:28Z</time>
      </trkpt>
      <trkpt lat="48.10692" lon="-4.20499">
        <ele>106</ele>
        <time>2018-12-27T14:04:41Z</time>
      </trkpt>
      <trkpt lat="48.10696" lon="-4.20512">
        <ele>105</ele>
        <time>2018-12-27T14:04:58Z</time>
      </trkpt>
      <trkpt lat="48.10696" lon="-4.20516">
        <ele>105</ele>
        <time>2018-12-27T14:05:00Z</time>
      </trkpt>
      <trkpt lat="48.10698" lon="-4.20548">
        <ele>105</ele>
        <time>2018-12-27T14:05:18Z</time>
      </trkpt>
      <trkpt lat="48.107" lon="-4.20579">
        <ele>105</ele>
        <time>2018-12-27T14:05:36Z</time>
      </trkpt>
      <trkpt lat="48.107" lon="-4.20608">
        <ele>104</ele>
        <time>2018-12-27T14:05:53Z</time>
      </trkpt>
      <trkpt lat="48.10701" lon="-4.20611">
        <ele>104</ele>
        <time>2018-12-27T14:05:57Z</time>
      </trkpt>
      <trkpt lat="48.10702" lon="-4.20619">
        <ele>104</ele>
        <time>2018-12-27T14:06:02Z</time>
      </trkpt>
      <trkpt lat="48.10702" lon="-4.20628">
        <ele>103</ele>
        <time>2018-12-27T14:06:07Z</time>
      </trkpt>
      <trkpt lat="48.10705" lon="-4.20649">
        <ele>103</ele>
        <time>2018-12-27T14:06:19Z</time>
      </trkpt>
      <trkpt lat="48.10708" lon="-4.2067">
        <ele>102</ele>
        <time>2018-12-27T14:06:34Z</time>
      </trkpt>
      <trkpt lat="48.10711" lon="-4.207">
        <ele>102</ele>
        <time>2018-12-27T14:06:54Z</time>
      </trkpt>
      <trkpt lat="48.10713" lon="-4.20724">
        <ele>102</ele>
        <time>2018-12-27T14:07:08Z</time>
      </trkpt>
      <trkpt lat="48.10713" lon="-4.2073">
        <ele>102</ele>
        <time>2018-12-27T14:07:12Z</time>
      </trkpt>
      <trkpt lat="48.10714" lon="-4.20738">
        <ele>102</ele>
        <time>2018-12-27T14:07:16Z</time>
      </trkpt>
      <trkpt lat="48.10715" lon="-4.20748">
        <ele>101</ele>
        <time>2018-12-27T14:07:21Z</time>
      </trkpt>
      <trkpt lat="48.10718" lon="-4.20758">
        <ele>100</ele>
        <time>2018-12-27T14:07:26Z</time>
      </trkpt>
      <trkpt lat="48.10719" lon="-4.20779">
        <ele>100</ele>
        <time>2018-12-27T14:07:41Z</time>
      </trkpt>
      <trkpt lat="48.10721" lon="-4.20806">
        <ele>100</ele>
        <time>2018-12-27T14:07:59Z</time>
      </trkpt>
      <trkpt lat="48.10722" lon="-4.20829">
        <ele>99</ele>
        <time>2018-12-27T14:08:12Z</time>
      </trkpt>
      <trkpt lat="48.10723" lon="-4.2085">
        <ele>98</ele>
        <time>2018-12-27T14:08:23Z</time>
      </trkpt>
      <trkpt lat="48.10723" lon="-4.20856">
        <ele>98</ele>
        <time>2018-12-27T14:08:27Z</time>
      </trkpt>
      <trkpt lat="48.10723" lon="-4.20862">
        <ele>98</ele>
        <time>2018-12-27T14:08:30Z</time>
      </trkpt>
      <trkpt lat="48.10724" lon="-4.2087">
        <ele>97</ele>
        <time>2018-12-27T14:08:35Z</time>
      </trkpt>
      <trkpt lat="48.10724" lon="-4.20894">
        <ele>97</ele>
        <time>2018-12-27T14:08:51Z</time>
      </trkpt>
      <trkpt lat="48.10725" lon="-4.20923">
        <ele>96</ele>
        <time>2018-12-27T14:09:07Z</time>
      </trkpt>
      <trkpt lat="48.10724" lon="-4.20937">
        <ele>96</ele>
        <time>2018-12-27T14:09:15Z</time>
      </trkpt>
      <trkpt lat="48.10725" lon="-4.20946">
        <ele>95</ele>
        <time>2018-12-27T14:09:21Z</time>
      </trkpt>
      <trkpt lat="48.10724" lon="-4.20957">
        <ele>95</ele>
        <time>2018-12-27T14:09:26Z</time>
      </trkpt>
      <trkpt lat="48.10724" lon="-4.20985">
        <ele>95</ele>
        <time>2018-12-27T14:09:42Z</time>
      </trkpt>
      <trkpt lat="48.10722" lon="-4.21017">
        <ele>94</ele>
        <time>2018-12-27T14:09:59Z</time>
      </trkpt>
      <trkpt lat="48.10721" lon="-4.21042">
        <ele>93</ele>
        <time>2018-12-27T14:10:13Z</time>
      </trkpt>
      <trkpt lat="48.1072" lon="-4.2105">
        <ele>93</ele>
        <time>2018-12-27T14:10:18Z</time>
      </trkpt>
      <trkpt lat="48.1071" lon="-4.21058">
        <ele>93</ele>
        <time>2018-12-27T14:10:28Z</time>
      </trkpt>
      <trkpt lat="48.10696" lon="-4.21052">
        <ele>92</ele>
        <time>2018-12-27T14:10:45Z</time>
      </trkpt>
      <trkpt lat="48.10682" lon="-4.21046">
        <ele>92</ele>
        <time>2018-12-27T14:11:02Z</time>
      </trkpt>
      <trkpt lat="48.10681" lon="-4.21046">
        <ele>92</ele>
        <time>2018-12-27T14:11:03Z</time>
      </trkpt>
      <trkpt lat="48.10662" lon="-4.21037">
        <ele>89</ele>
        <time>2018-12-27T14:11:23Z</time>
      </trkpt>
      <trkpt lat="48.10651" lon="-4.21032">
        <ele>88</ele>
        <time>2018-12-27T14:11:34Z</time>
      </trkpt>
      <trkpt lat="48.10632" lon="-4.21025">
        <ele>88</ele>
        <time>2018-12-27T14:11:56Z</time>
      </trkpt>
      <trkpt lat="48.10629" lon="-4.21024">
        <ele>88</ele>
        <time>2018-12-27T14:11:58Z</time>
      </trkpt>
      <trkpt lat="48.10617" lon="-4.21017">
        <ele>87</ele>
        <time>2018-12-27T14:12:15Z</time>
      </trkpt>
      <trkpt lat="48.10615" lon="-4.21016">
        <ele>87</ele>
        <time>2018-12-27T14:12:17Z</time>
      </trkpt>
      <trkpt lat="48.106" lon="-4.21011">
        <ele>87</ele>
        <time>2018-12-27T14:12:33Z</time>
      </trkpt>
      <trkpt lat="48.10577" lon="-4.21003">
        <ele>85</ele>
        <time>2018-12-27T14:12:51Z</time>
      </trkpt>
      <trkpt lat="48.10555" lon="-4.21002">
        <ele>84</ele>
        <time>2018-12-27T14:13:10Z</time>
      </trkpt>
      <trkpt lat="48.10539" lon="-4.21004">
        <ele>84</ele>
        <time>2018-12-27T14:13:25Z</time>
      </trkpt>
      <trkpt lat="48.10519" lon="-4.21004">
        <ele>84</ele>
        <time>2018-12-27T14:13:43Z</time>
      </trkpt>
      <trkpt lat="48.10505" lon="-4.21001">
        <ele>84</ele>
        <time>2018-12-27T14:13:58Z</time>
      </trkpt>
      <trkpt lat="48.10492" lon="-4.21002">
        <ele>84</ele>
        <time>2018-12-27T14:14:09Z</time>
      </trkpt>
      <trkpt lat="48.1048" lon="-4.21011">
        <ele>85</ele>
        <time>2018-12-27T14:14:21Z</time>
      </trkpt>
      <trkpt lat="48.10477" lon="-4.21027">
        <ele>85</ele>
        <time>2018-12-27T14:14:37Z</time>
      </trkpt>
      <trkpt lat="48.1048" lon="-4.21062">
        <ele>84</ele>
        <time>2018-12-27T14:15:00Z</time>
      </trkpt>
      <trkpt lat="48.10484" lon="-4.21091">
        <ele>82</ele>
        <time>2018-12-27T14:15:17Z</time>
      </trkpt>
      <trkpt lat="48.10486" lon="-4.21104">
        <ele>82</ele>
        <time>2018-12-27T14:15:25Z</time>
      </trkpt>
      <trkpt lat="48.10487" lon="-4.21121">
        <ele>82</ele>
        <time>2018-12-27T14:15:37Z</time>
      </trkpt>
      <trkpt lat="48.10489" lon="-4.21128">
        <ele>82</ele>
        <time>2018-12-27T14:15:42Z</time>
      </trkpt>
      <trkpt lat="48.10489" lon="-4.21137">
        <ele>81</ele>
        <time>2018-12-27T14:15:48Z</time>
      </trkpt>
      <trkpt lat="48.1049" lon="-4.21142">
        <ele>81</ele>
        <time>2018-12-27T14:15:51Z</time>
      </trkpt>
      <trkpt lat="48.10491" lon="-4.21163">
        <ele>80</ele>
        <time>2018-12-27T14:16:03Z</time>
      </trkpt>
      <trkpt lat="48.1049" lon="-4.21175">
        <ele>80</ele>
        <time>2018-12-27T14:16:14Z</time>
      </trkpt>
      <trkpt lat="48.10492" lon="-4.21201">
        <ele>81</ele>
        <time>2018-12-27T14:16:33Z</time>
      </trkpt>
      <trkpt lat="48.10493" lon="-4.2121">
        <ele>81</ele>
        <time>2018-12-27T14:16:38Z</time>
      </trkpt>
      <trkpt lat="48.10495" lon="-4.21242">
        <ele>79</ele>
        <time>2018-12-27T14:16:56Z</time>
      </trkpt>
      <trkpt lat="48.10494" lon="-4.21274">
        <ele>81</ele>
        <time>2018-12-27T14:17:14Z</time>
      </trkpt>
      <trkpt lat="48.10494" lon="-4.21299">
        <ele>81</ele>
        <time>2018-12-27T14:17:28Z</time>
      </trkpt>
      <trkpt lat="48.10494" lon="-4.21325">
        <ele>80</ele>
        <time>2018-12-27T14:17:45Z</time>
      </trkpt>
      <trkpt lat="48.10493" lon="-4.21352">
        <ele>81</ele>
        <time>2018-12-27T14:18:00Z</time>
      </trkpt>
      <trkpt lat="48.10493" lon="-4.2137">
        <ele>83</ele>
        <time>2018-12-27T14:18:10Z</time>
      </trkpt>
      <trkpt lat="48.10492" lon="-4.21391">
        <ele>83</ele>
        <time>2018-12-27T14:18:24Z</time>
      </trkpt>
      <trkpt lat="48.10487" lon="-4.21419">
        <ele>83</ele>
        <time>2018-12-27T14:18:50Z</time>
      </trkpt>
      <trkpt lat="48.10484" lon="-4.21434">
        <ele>85</ele>
        <time>2018-12-27T14:19:02Z</time>
      </trkpt>
      <trkpt lat="48.10482" lon="-4.21458">
        <ele>86</ele>
        <time>2018-12-27T14:19:19Z</time>
      </trkpt>
      <trkpt lat="48.10474" lon="-4.2149">
        <ele>86</ele>
        <time>2018-12-27T14:19:39Z</time>
      </trkpt>
      <trkpt lat="48.10473" lon="-4.21507">
        <ele>87</ele>
        <time>2018-12-27T14:19:51Z</time>
      </trkpt>
      <trkpt lat="48.10468" lon="-4.21545">
        <ele>88</ele>
        <time>2018-12-27T14:20:15Z</time>
      </trkpt>
      <trkpt lat="48.1046" lon="-4.2157">
        <ele>88</ele>
        <time>2018-12-27T14:20:31Z</time>
      </trkpt>
      <trkpt lat="48.10452" lon="-4.21599">
        <ele>88</ele>
        <time>2018-12-27T14:20:49Z</time>
      </trkpt>
      <trkpt lat="48.10444" lon="-4.21625">
        <ele>88</ele>
        <time>2018-12-27T14:21:06Z</time>
      </trkpt>
      <trkpt lat="48.10443" lon="-4.21627">
        <ele>88</ele>
        <time>2018-12-27T14:21:07Z</time>
      </trkpt>
      <trkpt lat="48.10439" lon="-4.21648">
        <ele>88</ele>
        <time>2018-12-27T14:21:20Z</time>
      </trkpt>
      <trkpt lat="48.10433" lon="-4.21667">
        <ele>88</ele>
        <time>2018-12-27T14:21:34Z</time>
      </trkpt>
      <trkpt lat="48.10421" lon="-4.21689">
        <ele>87</ele>
        <time>2018-12-27T14:21:57Z</time>
      </trkpt>
      <trkpt lat="48.10406" lon="-4.21721">
        <ele>92</ele>
        <time>2018-12-27T14:22:19Z</time>
      </trkpt>
      <trkpt lat="48.10403" lon="-4.21732">
        <ele>91</ele>
        <time>2018-12-27T14:22:28Z</time>
      </trkpt>
      <trkpt lat="48.10399" lon="-4.21763">
        <ele>91</ele>
        <time>2018-12-27T14:22:41Z</time>
      </trkpt>
      <trkpt lat="48.10398" lon="-4.21778">
        <ele>91</ele>
        <time>2018-12-27T14:23:02Z</time>
      </trkpt>
      <trkpt lat="48.10396" lon="-4.21792">
        <ele>91</ele>
        <time>2018-12-27T14:23:16Z</time>
      </trkpt>
      <trkpt lat="48.10382" lon="-4.21809">
        <ele>92</ele>
        <time>2018-12-27T14:23:40Z</time>
      </trkpt>
      <trkpt lat="48.10362" lon="-4.21812">
        <ele>93</ele>
        <time>2018-12-27T14:24:03Z</time>
      </trkpt>
      <trkpt lat="48.1034" lon="-4.21816">
        <ele>95</ele>
        <time>2018-12-27T14:24:29Z</time>
      </trkpt>
      <trkpt lat="48.10322" lon="-4.21821">
        <ele>98</ele>
        <time>2018-12-27T14:24:51Z</time>
      </trkpt>
      <trkpt lat="48.10305" lon="-4.2183">
        <ele>99</ele>
        <time>2018-12-27T14:25:11Z</time>
      </trkpt>
      <trkpt lat="48.10307" lon="-4.21841">
        <ele>98</ele>
        <time>2018-12-27T14:25:22Z</time>
      </trkpt>
      <trkpt lat="48.1031" lon="-4.21854">
        <ele>98</ele>
        <time>2018-12-27T14:25:30Z</time>
      </trkpt>
      <trkpt lat="48.10311" lon="-4.21858">
        <ele>98</ele>
        <time>2018-12-27T14:25:32Z</time>
      </trkpt>
      <trkpt lat="48.10321" lon="-4.21874">
        <ele>97</ele>
        <time>2018-12-27T14:25:47Z</time>
      </trkpt>
      <trkpt lat="48.10324" lon="-4.21884">
        <ele>97</ele>
        <time>2018-12-27T14:26:02Z</time>
      </trkpt>
      <trkpt lat="48.1034" lon="-4.21912">
        <ele>93</ele>
        <time>2018-12-27T14:26:26Z</time>
      </trkpt>
      <trkpt lat="48.10358" lon="-4.21926">
        <ele>91</ele>
        <time>2018-12-27T14:26:50Z</time>
      </trkpt>
      <trkpt lat="48.10369" lon="-4.21949">
        <ele>90</ele>
        <time>2018-12-27T14:27:10Z</time>
      </trkpt>
      <trkpt lat="48.1038" lon="-4.21966">
        <ele>90</ele>
        <time>2018-12-27T14:27:24Z</time>
      </trkpt>
      <trkpt lat="48.10382" lon="-4.21968">
        <ele>89</ele>
        <time>2018-12-27T14:27:26Z</time>
      </trkpt>
      <trkpt lat="48.10384" lon="-4.21973">
        <ele>89</ele>
        <time>2018-12-27T14:27:29Z</time>
      </trkpt>
      <trkpt lat="48.10383" lon="-4.21997">
        <ele>89</ele>
        <time>2018-12-27T14:27:45Z</time>
      </trkpt>
      <trkpt lat="48.10379" lon="-4.22001">
        <ele>88</ele>
        <time>2018-12-27T14:27:48Z</time>
      </trkpt>
      <trkpt lat="48.10372" lon="-4.2202">
        <ele>88</ele>
        <time>2018-12-27T14:28:02Z</time>
      </trkpt>
      <trkpt lat="48.10362" lon="-4.22061">
        <ele>87</ele>
        <time>2018-12-27T14:28:23Z</time>
      </trkpt>
      <trkpt lat="48.10355" lon="-4.22096">
        <ele>85</ele>
        <time>2018-12-27T14:28:47Z</time>
      </trkpt>
      <trkpt lat="48.10356" lon="-4.22125">
        <ele>84</ele>
        <time>2018-12-27T14:29:08Z</time>
      </trkpt>
      <trkpt lat="48.10355" lon="-4.22146">
        <ele>83</ele>
        <time>2018-12-27T14:29:21Z</time>
      </trkpt>
      <trkpt lat="48.10349" lon="-4.22185">
        <ele>81</ele>
        <time>2018-12-27T14:29:42Z</time>
      </trkpt>
      <trkpt lat="48.10346" lon="-4.2221">
        <ele>80</ele>
        <time>2018-12-27T14:29:57Z</time>
      </trkpt>
      <trkpt lat="48.10343" lon="-4.22224">
        <ele>80</ele>
        <time>2018-12-27T14:30:04Z</time>
      </trkpt>
      <trkpt lat="48.10339" lon="-4.22248">
        <ele>81</ele>
        <time>2018-12-27T14:30:19Z</time>
      </trkpt>
      <trkpt lat="48.10343" lon="-4.22277">
        <ele>80</ele>
        <time>2018-12-27T14:30:39Z</time>
      </trkpt>
      <trkpt lat="48.1034" lon="-4.22298">
        <ele>80</ele>
        <time>2018-12-27T14:30:55Z</time>
      </trkpt>
      <trkpt lat="48.1034" lon="-4.22322">
        <ele>81</ele>
        <time>2018-12-27T14:31:09Z</time>
      </trkpt>
      <trkpt lat="48.10334" lon="-4.22373">
        <ele>80</ele>
        <time>2018-12-27T14:31:36Z</time>
      </trkpt>
      <trkpt lat="48.10327" lon="-4.22406">
        <ele>82</ele>
        <time>2018-12-27T14:32:00Z</time>
      </trkpt>
      <trkpt lat="48.1031" lon="-4.22434">
        <ele>80</ele>
        <time>2018-12-27T14:32:23Z</time>
      </trkpt>
      <trkpt lat="48.1029" lon="-4.22471">
        <ele>79</ele>
        <time>2018-12-27T14:32:44Z</time>
      </trkpt>
      <trkpt lat="48.10286" lon="-4.22483">
        <ele>79</ele>
        <time>2018-12-27T14:32:53Z</time>
      </trkpt>
      <trkpt lat="48.10284" lon="-4.22492">
        <ele>79</ele>
        <time>2018-12-27T14:32:58Z</time>
      </trkpt>
      <trkpt lat="48.10279" lon="-4.22523">
        <ele>76</ele>
        <time>2018-12-27T14:33:15Z</time>
      </trkpt>
      <trkpt lat="48.10272" lon="-4.22536">
        <ele>75</ele>
        <time>2018-12-27T14:33:28Z</time>
      </trkpt>
      <trkpt lat="48.10271" lon="-4.22559">
        <ele>75</ele>
        <time>2018-12-27T14:33:48Z</time>
      </trkpt>
      <trkpt lat="48.10262" lon="-4.22588">
        <ele>74</ele>
        <time>2018-12-27T14:34:06Z</time>
      </trkpt>
      <trkpt lat="48.10257" lon="-4.22609">
        <ele>73</ele>
        <time>2018-12-27T14:34:22Z</time>
      </trkpt>
      <trkpt lat="48.1025" lon="-4.22621">
        <ele>73</ele>
        <time>2018-12-27T14:34:47Z</time>
      </trkpt>
      <trkpt lat="48.1025" lon="-4.22639">
        <ele>75</ele>
        <time>2018-12-27T14:35:00Z</time>
      </trkpt>
      <trkpt lat="48.10245" lon="-4.22659">
        <ele>74</ele>
        <time>2018-12-27T14:35:13Z</time>
      </trkpt>
      <trkpt lat="48.10241" lon="-4.22681">
        <ele>74</ele>
        <time>2018-12-27T14:35:29Z</time>
      </trkpt>
      <trkpt lat="48.10238" lon="-4.2271">
        <ele>75</ele>
        <time>2018-12-27T14:35:52Z</time>
      </trkpt>
      <trkpt lat="48.10231" lon="-4.22745">
        <ele>75</ele>
        <time>2018-12-27T14:36:13Z</time>
      </trkpt>
      <trkpt lat="48.1023" lon="-4.22748">
        <ele>75</ele>
        <time>2018-12-27T14:36:15Z</time>
      </trkpt>
      <trkpt lat="48.10223" lon="-4.22761">
        <ele>78</ele>
        <time>2018-12-27T14:36:30Z</time>
      </trkpt>
      <trkpt lat="48.10217" lon="-4.22772">
        <ele>79</ele>
        <time>2018-12-27T14:36:49Z</time>
      </trkpt>
      <trkpt lat="48.10203" lon="-4.22786">
        <ele>79</ele>
        <time>2018-12-27T14:37:06Z</time>
      </trkpt>
      <trkpt lat="48.10189" lon="-4.22799">
        <ele>80</ele>
        <time>2018-12-27T14:37:25Z</time>
      </trkpt>
      <trkpt lat="48.10173" lon="-4.22819">
        <ele>82</ele>
        <time>2018-12-27T14:37:53Z</time>
      </trkpt>
      <trkpt lat="48.10157" lon="-4.22841">
        <ele>87</ele>
        <time>2018-12-27T14:38:17Z</time>
      </trkpt>
      <trkpt lat="48.10138" lon="-4.22872">
        <ele>90</ele>
        <time>2018-12-27T14:38:45Z</time>
      </trkpt>
      <trkpt lat="48.10128" lon="-4.22893">
        <ele>91</ele>
        <time>2018-12-27T14:39:07Z</time>
      </trkpt>
      <trkpt lat="48.10124" lon="-4.22897">
        <ele>91</ele>
        <time>2018-12-27T14:39:11Z</time>
      </trkpt>
      <trkpt lat="48.10122" lon="-4.22898">
        <ele>91</ele>
        <time>2018-12-27T14:39:14Z</time>
      </trkpt>
      <trkpt lat="48.10098" lon="-4.22914">
        <ele>93</ele>
        <time>2018-12-27T14:39:36Z</time>
      </trkpt>
      <trkpt lat="48.10087" lon="-4.22925">
        <ele>94</ele>
        <time>2018-12-27T14:39:56Z</time>
      </trkpt>
      <trkpt lat="48.10085" lon="-4.22931">
        <ele>94</ele>
        <time>2018-12-27T14:40:13Z</time>
      </trkpt>
      <trkpt lat="48.1007" lon="-4.22974">
        <ele>97</ele>
        <time>2018-12-27T14:40:34Z</time>
      </trkpt>
      <trkpt lat="48.10064" lon="-4.22987">
        <ele>97</ele>
        <time>2018-12-27T14:40:55Z</time>
      </trkpt>
      <trkpt lat="48.10059" lon="-4.23005">
        <ele>98</ele>
        <time>2018-12-27T14:41:15Z</time>
      </trkpt>
      <trkpt lat="48.10053" lon="-4.23023">
        <ele>99</ele>
        <time>2018-12-27T14:41:35Z</time>
      </trkpt>
      <trkpt lat="48.10046" lon="-4.23026">
        <ele>99</ele>
        <time>2018-12-27T14:41:52Z</time>
      </trkpt>
      <trkpt lat="48.10022" lon="-4.23025">
        <ele>100</ele>
        <time>2018-12-27T14:42:14Z</time>
      </trkpt>
      <trkpt lat="48.10016" lon="-4.23023">
        <ele>100</ele>
        <time>2018-12-27T14:42:20Z</time>
      </trkpt>
      <trkpt lat="48.09995" lon="-4.23023">
        <ele>104</ele>
        <time>2018-12-27T14:42:37Z</time>
      </trkpt>
      <trkpt lat="48.0997" lon="-4.23021">
        <ele>105</ele>
        <time>2018-12-27T14:43:04Z</time>
      </trkpt>
      <trkpt lat="48.0995" lon="-4.2302">
        <ele>106</ele>
        <time>2018-12-27T14:43:28Z</time>
      </trkpt>
      <trkpt lat="48.0993" lon="-4.23025">
        <ele>107</ele>
        <time>2018-12-27T14:43:47Z</time>
      </trkpt>
      <trkpt lat="48.09927" lon="-4.23042">
        <ele>107</ele>
        <time>2018-12-27T14:43:59Z</time>
      </trkpt>
      <trkpt lat="48.09922" lon="-4.23077">
        <ele>108</ele>
        <time>2018-12-27T14:44:17Z</time>
      </trkpt>
      <trkpt lat="48.0992" lon="-4.23098">
        <ele>108</ele>
        <time>2018-12-27T14:44:30Z</time>
      </trkpt>
      <trkpt lat="48.09913" lon="-4.23126">
        <ele>112</ele>
        <time>2018-12-27T14:44:53Z</time>
      </trkpt>
      <trkpt lat="48.09903" lon="-4.23164">
        <ele>111</ele>
        <time>2018-12-27T14:45:12Z</time>
      </trkpt>
      <trkpt lat="48.09895" lon="-4.23193">
        <ele>111</ele>
        <time>2018-12-27T14:45:33Z</time>
      </trkpt>
      <trkpt lat="48.09884" lon="-4.23241">
        <ele>111</ele>
        <time>2018-12-27T14:45:54Z</time>
      </trkpt>
      <trkpt lat="48.09883" lon="-4.23243">
        <ele>111</ele>
        <time>2018-12-27T14:45:55Z</time>
      </trkpt>
      <trkpt lat="48.09877" lon="-4.2326">
        <ele>109</ele>
        <time>2018-12-27T14:46:05Z</time>
      </trkpt>
      <trkpt lat="48.09858" lon="-4.23254">
        <ele>109</ele>
        <time>2018-12-27T14:46:23Z</time>
      </trkpt>
      <trkpt lat="48.09855" lon="-4.23255">
        <ele>110</ele>
        <time>2018-12-27T14:46:26Z</time>
      </trkpt>
      <trkpt lat="48.09842" lon="-4.23249">
        <ele>112</ele>
        <time>2018-12-27T14:46:38Z</time>
      </trkpt>
      <trkpt lat="48.09814" lon="-4.23238">
        <ele>115</ele>
        <time>2018-12-27T14:47:02Z</time>
      </trkpt>
      <trkpt lat="48.09796" lon="-4.23233">
        <ele>116</ele>
        <time>2018-12-27T14:47:18Z</time>
      </trkpt>
      <trkpt lat="48.09788" lon="-4.23229">
        <ele>117</ele>
        <time>2018-12-27T14:47:35Z</time>
      </trkpt>
      <trkpt lat="48.0977" lon="-4.23221">
        <ele>118</ele>
        <time>2018-12-27T14:47:53Z</time>
      </trkpt>
      <trkpt lat="48.09766" lon="-4.23221">
        <ele>118</ele>
        <time>2018-12-27T14:47:57Z</time>
      </trkpt>
      <trkpt lat="48.09754" lon="-4.23213">
        <ele>118</ele>
        <time>2018-12-27T14:48:08Z</time>
      </trkpt>
      <trkpt lat="48.09731" lon="-4.23202">
        <ele>121</ele>
        <time>2018-12-27T14:48:27Z</time>
      </trkpt>
      <trkpt lat="48.09713" lon="-4.23196">
        <ele>122</ele>
        <time>2018-12-27T14:48:43Z</time>
      </trkpt>
      <trkpt lat="48.097" lon="-4.2319">
        <ele>122</ele>
        <time>2018-12-27T14:48:57Z</time>
      </trkpt>
      <trkpt lat="48.09678" lon="-4.2319">
        <ele>122</ele>
        <time>2018-12-27T14:49:14Z</time>
      </trkpt>
      <trkpt lat="48.0966" lon="-4.23186">
        <ele>124</ele>
        <time>2018-12-27T14:49:31Z</time>
      </trkpt>
      <trkpt lat="48.09656" lon="-4.2318">
        <ele>124</ele>
        <time>2018-12-27T14:49:53Z</time>
      </trkpt>
      <trkpt lat="48.09656" lon="-4.23164">
        <ele>125</ele>
        <time>2018-12-27T14:50:11Z</time>
      </trkpt>
      <trkpt lat="48.09656" lon="-4.23166">
        <ele>125</ele>
        <time>2018-12-27T14:50:33Z</time>
      </trkpt>
      <trkpt lat="48.09656" lon="-4.23163">
        <ele>125</ele>
        <time>2018-12-27T14:50:39Z</time>
      </trkpt>
      <trkpt lat="48.09654" lon="-4.23159">
        <ele>125</ele>
        <time>2018-12-27T14:50:42Z</time>
      </trkpt>
      <trkpt lat="48.09641" lon="-4.23139">
        <ele>126</ele>
        <time>2018-12-27T14:50:56Z</time>
      </trkpt>
      <trkpt lat="48.09642" lon="-4.23126">
        <ele>127</ele>
        <time>2018-12-27T14:51:06Z</time>
      </trkpt>
      <trkpt lat="48.09642" lon="-4.23097">
        <ele>127</ele>
        <time>2018-12-27T14:51:23Z</time>
      </trkpt>
      <trkpt lat="48.09642" lon="-4.23096">
        <ele>127</ele>
        <time>2018-12-27T14:51:24Z</time>
      </trkpt>
      <trkpt lat="48.09639" lon="-4.23085">
        <ele>128</ele>
        <time>2018-12-27T14:51:30Z</time>
      </trkpt>
      <trkpt lat="48.09635" lon="-4.23058">
        <ele>128</ele>
        <time>2018-12-27T14:51:47Z</time>
      </trkpt>
      <trkpt lat="48.09634" lon="-4.23027">
        <ele>128</ele>
        <time>2018-12-27T14:52:04Z</time>
      </trkpt>
      <trkpt lat="48.09635" lon="-4.22996">
        <ele>128</ele>
        <time>2018-12-27T14:52:20Z</time>
      </trkpt>
      <trkpt lat="48.09635" lon="-4.22968">
        <ele>128</ele>
        <time>2018-12-27T14:52:37Z</time>
      </trkpt>
      <trkpt lat="48.09633" lon="-4.22964">
        <ele>128</ele>
        <time>2018-12-27T14:52:41Z</time>
      </trkpt>
      <trkpt lat="48.09622" lon="-4.2295">
        <ele>129</ele>
        <time>2018-12-27T14:52:57Z</time>
      </trkpt>
      <trkpt lat="48.09599" lon="-4.22936">
        <ele>129</ele>
        <time>2018-12-27T14:53:18Z</time>
      </trkpt>
      <trkpt lat="48.09586" lon="-4.22924">
        <ele>130</ele>
        <time>2018-12-27T14:53:31Z</time>
      </trkpt>
      <trkpt lat="48.09583" lon="-4.22912">
        <ele>131</ele>
        <time>2018-12-27T14:53:38Z</time>
      </trkpt>
      <trkpt lat="48.09577" lon="-4.22896">
        <ele>132</ele>
        <time>2018-12-27T14:53:52Z</time>
      </trkpt>
      <trkpt lat="48.09577" lon="-4.22895">
        <ele>132</ele>
        <time>2018-12-27T14:53:53Z</time>
      </trkpt>
      <trkpt lat="48.09573" lon="-4.22883">
        <ele>133</ele>
        <time>2018-12-27T14:54:02Z</time>
      </trkpt>
      <trkpt lat="48.09563" lon="-4.22858">
        <ele>133</ele>
        <time>2018-12-27T14:54:21Z</time>
      </trkpt>
      <trkpt lat="48.09549" lon="-4.22816">
        <ele>136</ele>
        <time>2018-12-27T14:54:45Z</time>
      </trkpt>
      <trkpt lat="48.09535" lon="-4.22774">
        <ele>137</ele>
        <time>2018-12-27T14:55:12Z</time>
      </trkpt>
      <trkpt lat="48.09524" lon="-4.22743">
        <ele>139</ele>
        <time>2018-12-27T14:55:33Z</time>
      </trkpt>
      <trkpt lat="48.0951" lon="-4.22696">
        <ele>140</ele>
        <time>2018-12-27T14:55:59Z</time>
      </trkpt>
      <trkpt lat="48.09503" lon="-4.22672">
        <ele>142</ele>
        <time>2018-12-27T14:56:18Z</time>
      </trkpt>
      <trkpt lat="48.09501" lon="-4.22665">
        <ele>143</ele>
        <time>2018-12-27T14:56:22Z</time>
      </trkpt>
      <trkpt lat="48.09492" lon="-4.22629">
        <ele>144</ele>
        <time>2018-12-27T14:56:40Z</time>
      </trkpt>
      <trkpt lat="48.0949" lon="-4.22617">
        <ele>144</ele>
        <time>2018-12-27T14:56:49Z</time>
      </trkpt>
      <trkpt lat="48.09488" lon="-4.22603">
        <ele>144</ele>
        <time>2018-12-27T14:57:03Z</time>
      </trkpt>
      <trkpt lat="48.09487" lon="-4.22597">
        <ele>144</ele>
        <time>2018-12-27T14:57:05Z</time>
      </trkpt>
      <trkpt lat="48.09472" lon="-4.22558">
        <ele>143</ele>
        <time>2018-12-27T14:57:21Z</time>
      </trkpt>
      <trkpt lat="48.09466" lon="-4.22531">
        <ele>143</ele>
        <time>2018-12-27T14:57:36Z</time>
      </trkpt>
      <trkpt lat="48.09458" lon="-4.22504">
        <ele>143</ele>
        <time>2018-12-27T14:57:55Z</time>
      </trkpt>
      <trkpt lat="48.09448" lon="-4.22472">
        <ele>144</ele>
        <time>2018-12-27T14:58:18Z</time>
      </trkpt>
      <trkpt lat="48.09441" lon="-4.22443">
        <ele>144</ele>
        <time>2018-12-27T14:58:40Z</time>
      </trkpt>
      <trkpt lat="48.0943" lon="-4.22402">
        <ele>146</ele>
        <time>2018-12-27T14:59:03Z</time>
      </trkpt>
      <trkpt lat="48.09423" lon="-4.22365">
        <ele>146</ele>
        <time>2018-12-27T14:59:24Z</time>
      </trkpt>
      <trkpt lat="48.09415" lon="-4.22329">
        <ele>148</ele>
        <time>2018-12-27T14:59:42Z</time>
      </trkpt>
      <trkpt lat="48.09411" lon="-4.22318">
        <ele>149</ele>
        <time>2018-12-27T14:59:53Z</time>
      </trkpt>
      <trkpt lat="48.09408" lon="-4.22308">
        <ele>149</ele>
        <time>2018-12-27T14:59:59Z</time>
      </trkpt>
      <trkpt lat="48.09402" lon="-4.22284">
        <ele>149</ele>
        <time>2018-12-27T15:00:15Z</time>
      </trkpt>
      <trkpt lat="48.09395" lon="-4.22257">
        <ele>149</ele>
        <time>2018-12-27T15:00:37Z</time>
      </trkpt>
      <trkpt lat="48.09394" lon="-4.22251">
        <ele>149</ele>
        <time>2018-12-27T15:00:40Z</time>
      </trkpt>
      <trkpt lat="48.09389" lon="-4.22228">
        <ele>150</ele>
        <time>2018-12-27T15:00:57Z</time>
      </trkpt>
      <trkpt lat="48.09383" lon="-4.22214">
        <ele>150</ele>
        <time>2018-12-27T15:01:30Z</time>
      </trkpt>
      <trkpt lat="48.09382" lon="-4.22211">
        <ele>150</ele>
        <time>2018-12-27T15:01:32Z</time>
      </trkpt>
      <trkpt lat="48.09375" lon="-4.22191">
        <ele>150</ele>
        <time>2018-12-27T15:01:49Z</time>
      </trkpt>
      <trkpt lat="48.09369" lon="-4.22164">
        <ele>152</ele>
        <time>2018-12-27T15:02:07Z</time>
      </trkpt>
      <trkpt lat="48.09364" lon="-4.22147">
        <ele>152</ele>
        <time>2018-12-27T15:02:22Z</time>
      </trkpt>
      <trkpt lat="48.09361" lon="-4.22127">
        <ele>152</ele>
        <time>2018-12-27T15:02:37Z</time>
      </trkpt>
      <trkpt lat="48.09351" lon="-4.22084">
        <ele>154</ele>
        <time>2018-12-27T15:03:00Z</time>
      </trkpt>
      <trkpt lat="48.09349" lon="-4.22052">
        <ele>155</ele>
        <time>2018-12-27T15:03:19Z</time>
      </trkpt>
      <trkpt lat="48.09348" lon="-4.22021">
        <ele>155</ele>
        <time>2018-12-27T15:03:36Z</time>
      </trkpt>
      <trkpt lat="48.09351" lon="-4.22006">
        <ele>156</ele>
        <time>2018-12-27T15:04:00Z</time>
      </trkpt>
      <trkpt lat="48.09346" lon="-4.21971">
        <ele>156</ele>
        <time>2018-12-27T15:04:19Z</time>
      </trkpt>
      <trkpt lat="48.09346" lon="-4.21969">
        <ele>156</ele>
        <time>2018-12-27T15:04:20Z</time>
      </trkpt>
      <trkpt lat="48.09344" lon="-4.21942">
        <ele>157</ele>
        <time>2018-12-27T15:04:36Z</time>
      </trkpt>
      <trkpt lat="48.09342" lon="-4.2192">
        <ele>157</ele>
        <time>2018-12-27T15:04:49Z</time>
      </trkpt>
      <trkpt lat="48.09337" lon="-4.21891">
        <ele>158</ele>
        <time>2018-12-27T15:05:12Z</time>
      </trkpt>
      <trkpt lat="48.0933" lon="-4.21837">
        <ele>161</ele>
        <time>2018-12-27T15:05:39Z</time>
      </trkpt>
      <trkpt lat="48.09329" lon="-4.21835">
        <ele>161</ele>
        <time>2018-12-27T15:05:41Z</time>
      </trkpt>
      <trkpt lat="48.09328" lon="-4.2183">
        <ele>161</ele>
        <time>2018-12-27T15:05:47Z</time>
      </trkpt>
      <trkpt lat="48.09325" lon="-4.2181">
        <ele>160</ele>
        <time>2018-12-27T15:06:00Z</time>
      </trkpt>
      <trkpt lat="48.09324" lon="-4.21806">
        <ele>160</ele>
        <time>2018-12-27T15:06:03Z</time>
      </trkpt>
      <trkpt lat="48.0932" lon="-4.21764">
        <ele>160</ele>
        <time>2018-12-27T15:06:25Z</time>
      </trkpt>
      <trkpt lat="48.09318" lon="-4.2176">
        <ele>160</ele>
        <time>2018-12-27T15:06:27Z</time>
      </trkpt>
      <trkpt lat="48.09308" lon="-4.21726">
        <ele>160</ele>
        <time>2018-12-27T15:06:42Z</time>
      </trkpt>
      <trkpt lat="48.09302" lon="-4.21699">
        <ele>160</ele>
        <time>2018-12-27T15:06:59Z</time>
      </trkpt>
      <trkpt lat="48.09301" lon="-4.21683">
        <ele>160</ele>
        <time>2018-12-27T15:07:11Z</time>
      </trkpt>
      <trkpt lat="48.09292" lon="-4.21652">
        <ele>160</ele>
        <time>2018-12-27T15:07:25Z</time>
      </trkpt>
      <trkpt lat="48.09298" lon="-4.2163">
        <ele>160</ele>
        <time>2018-12-27T15:07:40Z</time>
      </trkpt>
      <trkpt lat="48.09303" lon="-4.21604">
        <ele>160</ele>
        <time>2018-12-27T15:07:57Z</time>
      </trkpt>
      <trkpt lat="48.09308" lon="-4.21576">
        <ele>161</ele>
        <time>2018-12-27T15:08:11Z</time>
      </trkpt>
      <trkpt lat="48.09308" lon="-4.21574">
        <ele>161</ele>
        <time>2018-12-27T15:08:12Z</time>
      </trkpt>
      <trkpt lat="48.09313" lon="-4.21548">
        <ele>161</ele>
        <time>2018-12-27T15:08:28Z</time>
      </trkpt>
      <trkpt lat="48.09315" lon="-4.2154">
        <ele>161</ele>
        <time>2018-12-27T15:08:33Z</time>
      </trkpt>
      <trkpt lat="48.09315" lon="-4.21526">
        <ele>162</ele>
        <time>2018-12-27T15:08:39Z</time>
      </trkpt>
      <trkpt lat="48.09316" lon="-4.21496">
        <ele>163</ele>
        <time>2018-12-27T15:08:54Z</time>
      </trkpt>
      <trkpt lat="48.09317" lon="-4.21482">
        <ele>163</ele>
        <time>2018-12-27T15:09:03Z</time>
      </trkpt>
      <trkpt lat="48.09317" lon="-4.21455">
        <ele>163</ele>
        <time>2018-12-27T15:09:22Z</time>
      </trkpt>
      <trkpt lat="48.0931" lon="-4.21416">
        <ele>164</ele>
        <time>2018-12-27T15:09:39Z</time>
      </trkpt>
      <trkpt lat="48.0931" lon="-4.21403">
        <ele>164</ele>
        <time>2018-12-27T15:09:45Z</time>
      </trkpt>
      <trkpt lat="48.09307" lon="-4.21379">
        <ele>164</ele>
        <time>2018-12-27T15:09:59Z</time>
      </trkpt>
      <trkpt lat="48.09305" lon="-4.21371">
        <ele>163</ele>
        <time>2018-12-27T15:10:03Z</time>
      </trkpt>
      <trkpt lat="48.09303" lon="-4.21365">
        <ele>163</ele>
        <time>2018-12-27T15:10:06Z</time>
      </trkpt>
      <trkpt lat="48.09303" lon="-4.21339">
        <ele>163</ele>
        <time>2018-12-27T15:10:22Z</time>
      </trkpt>
      <trkpt lat="48.09305" lon="-4.21336">
        <ele>163</ele>
        <time>2018-12-27T15:10:25Z</time>
      </trkpt>
      <trkpt lat="48.0933" lon="-4.21321">
        <ele>163</ele>
        <time>2018-12-27T15:10:42Z</time>
      </trkpt>
      <trkpt lat="48.09345" lon="-4.21314">
        <ele>162</ele>
        <time>2018-12-27T15:10:56Z</time>
      </trkpt>
      <trkpt lat="48.09352" lon="-4.21312">
        <ele>162</ele>
        <time>2018-12-27T15:11:02Z</time>
      </trkpt>
      <trkpt lat="48.09374" lon="-4.21306">
        <ele>162</ele>
        <time>2018-12-27T15:11:19Z</time>
      </trkpt>
      <trkpt lat="48.09379" lon="-4.213">
        <ele>162</ele>
        <time>2018-12-27T15:11:24Z</time>
      </trkpt>
      <trkpt lat="48.09383" lon="-4.21294">
        <ele>162</ele>
        <time>2018-12-27T15:11:28Z</time>
      </trkpt>
      <trkpt lat="48.09386" lon="-4.21289">
        <ele>162</ele>
        <time>2018-12-27T15:11:46Z</time>
      </trkpt>
      <trkpt lat="48.09389" lon="-4.21298">
        <ele>162</ele>
        <time>2018-12-27T15:12:00Z</time>
      </trkpt>
      <trkpt lat="48.09386" lon="-4.21287">
        <ele>162</ele>
        <time>2018-12-27T15:12:02Z</time>
      </trkpt>
      <trkpt lat="48.09393" lon="-4.21281">
        <ele>162</ele>
        <time>2018-12-27T15:12:09Z</time>
      </trkpt>
      <trkpt lat="48.09416" lon="-4.21271">
        <ele>161</ele>
        <time>2018-12-27T15:12:25Z</time>
      </trkpt>
      <trkpt lat="48.09434" lon="-4.21272">
        <ele>161</ele>
        <time>2018-12-27T15:12:41Z</time>
      </trkpt>
      <trkpt lat="48.09457" lon="-4.21263">
        <ele>161</ele>
        <time>2018-12-27T15:13:01Z</time>
      </trkpt>
      <trkpt lat="48.09488" lon="-4.2126">
        <ele>161</ele>
        <time>2018-12-27T15:13:26Z</time>
      </trkpt>
      <trkpt lat="48.09511" lon="-4.21252">
        <ele>161</ele>
        <time>2018-12-27T15:13:47Z</time>
      </trkpt>
      <trkpt lat="48.09543" lon="-4.21249">
        <ele>164</ele>
        <time>2018-12-27T15:14:04Z</time>
      </trkpt>
      <trkpt lat="48.09562" lon="-4.21248">
        <ele>164</ele>
        <time>2018-12-27T15:14:18Z</time>
      </trkpt>
      <trkpt lat="48.09572" lon="-4.21247">
        <ele>164</ele>
        <time>2018-12-27T15:14:29Z</time>
      </trkpt>
      <trkpt lat="48.0959" lon="-4.21244">
        <ele>164</ele>
        <time>2018-12-27T15:14:45Z</time>
      </trkpt>
      <trkpt lat="48.09616" lon="-4.21246">
        <ele>164</ele>
        <time>2018-12-27T15:15:01Z</time>
      </trkpt>
      <trkpt lat="48.09619" lon="-4.21245">
        <ele>164</ele>
        <time>2018-12-27T15:15:03Z</time>
      </trkpt>
      <trkpt lat="48.0963" lon="-4.2124">
        <ele>164</ele>
        <time>2018-12-27T15:15:15Z</time>
      </trkpt>
      <trkpt lat="48.09645" lon="-4.21236">
        <ele>164</ele>
        <time>2018-12-27T15:15:23Z</time>
      </trkpt>
      <trkpt lat="48.09664" lon="-4.21228">
        <ele>163</ele>
        <time>2018-12-27T15:15:41Z</time>
      </trkpt>
      <trkpt lat="48.09689" lon="-4.2122">
        <ele>160</ele>
        <time>2018-12-27T15:16:02Z</time>
      </trkpt>
      <trkpt lat="48.09699" lon="-4.21214">
        <ele>160</ele>
        <time>2018-12-27T15:16:11Z</time>
      </trkpt>
      <trkpt lat="48.09713" lon="-4.21204">
        <ele>160</ele>
        <time>2018-12-27T15:16:23Z</time>
      </trkpt>
      <trkpt lat="48.09713" lon="-4.21199">
        <ele>160</ele>
        <time>2018-12-27T15:16:28Z</time>
      </trkpt>
      <trkpt lat="48.09717" lon="-4.21193">
        <ele>159</ele>
        <time>2018-12-27T15:16:32Z</time>
      </trkpt>
      <trkpt lat="48.09724" lon="-4.21185">
        <ele>159</ele>
        <time>2018-12-27T15:16:42Z</time>
      </trkpt>
      <trkpt lat="48.09733" lon="-4.2117">
        <ele>158</ele>
        <time>2018-12-27T15:16:53Z</time>
      </trkpt>
      <trkpt lat="48.09737" lon="-4.21159">
        <ele>158</ele>
        <time>2018-12-27T15:17:01Z</time>
      </trkpt>
      <trkpt lat="48.09741" lon="-4.21142">
        <ele>158</ele>
        <time>2018-12-27T15:17:11Z</time>
      </trkpt>
      <trkpt lat="48.09741" lon="-4.21134">
        <ele>158</ele>
        <time>2018-12-27T15:17:15Z</time>
      </trkpt>
      <trkpt lat="48.09739" lon="-4.21113">
        <ele>158</ele>
        <time>2018-12-27T15:17:28Z</time>
      </trkpt>
      <trkpt lat="48.09738" lon="-4.21106">
        <ele>158</ele>
        <time>2018-12-27T15:17:32Z</time>
      </trkpt>
      <trkpt lat="48.09749" lon="-4.21076">
        <ele>156</ele>
        <time>2018-12-27T15:17:50Z</time>
      </trkpt>
      <trkpt lat="48.0975" lon="-4.2107">
        <ele>154</ele>
        <time>2018-12-27T15:17:54Z</time>
      </trkpt>
      <trkpt lat="48.09752" lon="-4.21029">
        <ele>154</ele>
        <time>2018-12-27T15:18:14Z</time>
      </trkpt>
      <trkpt lat="48.09758" lon="-4.20993">
        <ele>155</ele>
        <time>2018-12-27T15:18:33Z</time>
      </trkpt>
      <trkpt lat="48.09759" lon="-4.20972">
        <ele>155</ele>
        <time>2018-12-27T15:18:46Z</time>
      </trkpt>
      <trkpt lat="48.09758" lon="-4.20966">
        <ele>155</ele>
        <time>2018-12-27T15:18:49Z</time>
      </trkpt>
      <trkpt lat="48.09743" lon="-4.20949">
        <ele>159</ele>
        <time>2018-12-27T15:19:04Z</time>
      </trkpt>
      <trkpt lat="48.09736" lon="-4.20947">
        <ele>160</ele>
        <time>2018-12-27T15:19:09Z</time>
      </trkpt>
      <trkpt lat="48.09727" lon="-4.2094">
        <ele>160</ele>
        <time>2018-12-27T15:19:29Z</time>
      </trkpt>
      <trkpt lat="48.09728" lon="-4.20935">
        <ele>160</ele>
        <time>2018-12-27T15:19:54Z</time>
      </trkpt>
      <trkpt lat="48.09728" lon="-4.20931">
        <ele>160</ele>
        <time>2018-12-27T15:19:57Z</time>
      </trkpt>
      <trkpt lat="48.09729" lon="-4.20923">
        <ele>160</ele>
        <time>2018-12-27T15:20:01Z</time>
      </trkpt>
      <trkpt lat="48.09734" lon="-4.20917">
        <ele>159</ele>
        <time>2018-12-27T15:20:06Z</time>
      </trkpt>
      <trkpt lat="48.09735" lon="-4.20914">
        <ele>160</ele>
        <time>2018-12-27T15:20:08Z</time>
      </trkpt>
      <trkpt lat="48.09745" lon="-4.20882">
        <ele>162</ele>
        <time>2018-12-27T15:20:27Z</time>
      </trkpt>
      <trkpt lat="48.09752" lon="-4.20858">
        <ele>159</ele>
        <time>2018-12-27T15:20:42Z</time>
      </trkpt>
      <trkpt lat="48.09754" lon="-4.2085">
        <ele>159</ele>
        <time>2018-12-27T15:20:47Z</time>
      </trkpt>
      <trkpt lat="48.09754" lon="-4.20836">
        <ele>160</ele>
        <time>2018-12-27T15:20:55Z</time>
      </trkpt>
      <trkpt lat="48.09762" lon="-4.20823">
        <ele>161</ele>
        <time>2018-12-27T15:21:07Z</time>
      </trkpt>
      <trkpt lat="48.09773" lon="-4.20825">
        <ele>160</ele>
        <time>2018-12-27T15:21:15Z</time>
      </trkpt>
      <trkpt lat="48.09788" lon="-4.20825">
        <ele>160</ele>
        <time>2018-12-27T15:21:27Z</time>
      </trkpt>
      <trkpt lat="48.09791" lon="-4.20825">
        <ele>160</ele>
        <time>2018-12-27T15:21:30Z</time>
      </trkpt>
      <trkpt lat="48.09802" lon="-4.20819">
        <ele>159</ele>
        <time>2018-12-27T15:21:38Z</time>
      </trkpt>
      <trkpt lat="48.0981" lon="-4.20823">
        <ele>159</ele>
        <time>2018-12-27T15:21:46Z</time>
      </trkpt>
      <trkpt lat="48.09814" lon="-4.20827">
        <ele>158</ele>
        <time>2018-12-27T15:21:50Z</time>
      </trkpt>
      <trkpt lat="48.09817" lon="-4.20827">
        <ele>158</ele>
        <time>2018-12-27T15:21:53Z</time>
      </trkpt>
      <trkpt lat="48.0982" lon="-4.20828">
        <ele>158</ele>
        <time>2018-12-27T15:21:55Z</time>
      </trkpt>
      <trkpt lat="48.09829" lon="-4.20828">
        <ele>157</ele>
        <time>2018-12-27T15:22:04Z</time>
      </trkpt>
      <trkpt lat="48.09836" lon="-4.20807">
        <ele>155</ele>
        <time>2018-12-27T15:22:21Z</time>
      </trkpt>
      <trkpt lat="48.09837" lon="-4.20784">
        <ele>156</ele>
        <time>2018-12-27T15:22:40Z</time>
      </trkpt>
      <trkpt lat="48.0984" lon="-4.20772">
        <ele>156</ele>
        <time>2018-12-27T15:22:49Z</time>
      </trkpt>
      <trkpt lat="48.09849" lon="-4.20743">
        <ele>157</ele>
        <time>2018-12-27T15:23:06Z</time>
      </trkpt>
      <trkpt lat="48.09848" lon="-4.20739">
        <ele>157</ele>
        <time>2018-12-27T15:23:22Z</time>
      </trkpt>
      <trkpt lat="48.09848" lon="-4.20721">
        <ele>157</ele>
        <time>2018-12-27T15:23:32Z</time>
      </trkpt>
      <trkpt lat="48.09855" lon="-4.20703">
        <ele>157</ele>
        <time>2018-12-27T15:23:43Z</time>
      </trkpt>
      <trkpt lat="48.09855" lon="-4.20699">
        <ele>157</ele>
        <time>2018-12-27T15:23:45Z</time>
      </trkpt>
      <trkpt lat="48.09856" lon="-4.20685">
        <ele>157</ele>
        <time>2018-12-27T15:23:53Z</time>
      </trkpt>
      <trkpt lat="48.09857" lon="-4.20681">
        <ele>157</ele>
        <time>2018-12-27T15:23:55Z</time>
      </trkpt>
      <trkpt lat="48.09857" lon="-4.20676">
        <ele>158</ele>
        <time>2018-12-27T15:23:58Z</time>
      </trkpt>
      <trkpt lat="48.09859" lon="-4.20666">
        <ele>158</ele>
        <time>2018-12-27T15:24:04Z</time>
      </trkpt>
      <trkpt lat="48.09861" lon="-4.20655">
        <ele>158</ele>
        <time>2018-12-27T15:24:10Z</time>
      </trkpt>
      <trkpt lat="48.09862" lon="-4.20651">
        <ele>158</ele>
        <time>2018-12-27T15:24:12Z</time>
      </trkpt>
      <trkpt lat="48.09869" lon="-4.20644">
        <ele>157</ele>
        <time>2018-12-27T15:24:18Z</time>
      </trkpt>
      <trkpt lat="48.09884" lon="-4.20647">
        <ele>156</ele>
        <time>2018-12-27T15:24:34Z</time>
      </trkpt>
      <trkpt lat="48.09902" lon="-4.20653">
        <ele>155</ele>
        <time>2018-12-27T15:24:55Z</time>
      </trkpt>
      <trkpt lat="48.09926" lon="-4.20646">
        <ele>148</ele>
        <time>2018-12-27T15:25:18Z</time>
      </trkpt>
      <trkpt lat="48.09947" lon="-4.20655">
        <ele>147</ele>
        <time>2018-12-27T15:25:38Z</time>
      </trkpt>
      <trkpt lat="48.09955" lon="-4.2063">
        <ele>145</ele>
        <time>2018-12-27T15:25:54Z</time>
      </trkpt>
      <trkpt lat="48.09955" lon="-4.20621">
        <ele>146</ele>
        <time>2018-12-27T15:25:59Z</time>
      </trkpt>
      <trkpt lat="48.09955" lon="-4.20611">
        <ele>146</ele>
        <time>2018-12-27T15:26:04Z</time>
      </trkpt>
      <trkpt lat="48.09961" lon="-4.20586">
        <ele>145</ele>
        <time>2018-12-27T15:26:19Z</time>
      </trkpt>
      <trkpt lat="48.09963" lon="-4.20575">
        <ele>144</ele>
        <time>2018-12-27T15:26:32Z</time>
      </trkpt>
      <trkpt lat="48.09966" lon="-4.20546">
        <ele>143</ele>
        <time>2018-12-27T15:26:48Z</time>
      </trkpt>
      <trkpt lat="48.0997" lon="-4.20526">
        <ele>143</ele>
        <time>2018-12-27T15:26:59Z</time>
      </trkpt>
      <trkpt lat="48.09975" lon="-4.20525">
        <ele>142</ele>
        <time>2018-12-27T15:27:03Z</time>
      </trkpt>
      <trkpt lat="48.09982" lon="-4.20508">
        <ele>141</ele>
        <time>2018-12-27T15:27:20Z</time>
      </trkpt>
      <trkpt lat="48.09981" lon="-4.20497">
        <ele>140</ele>
        <time>2018-12-27T15:27:29Z</time>
      </trkpt>
      <trkpt lat="48.09981" lon="-4.20487">
        <ele>140</ele>
        <time>2018-12-27T15:27:34Z</time>
      </trkpt>
      <trkpt lat="48.09981" lon="-4.20482">
        <ele>140</ele>
        <time>2018-12-27T15:27:36Z</time>
      </trkpt>
      <trkpt lat="48.09987" lon="-4.20456">
        <ele>140</ele>
        <time>2018-12-27T15:27:51Z</time>
      </trkpt>
      <trkpt lat="48.0999" lon="-4.20433">
        <ele>139</ele>
        <time>2018-12-27T15:28:07Z</time>
      </trkpt>
      <trkpt lat="48.09988" lon="-4.20434">
        <ele>139</ele>
        <time>2018-12-27T15:28:16Z</time>
      </trkpt>
      <trkpt lat="48.09992" lon="-4.20411">
        <ele>137</ele>
        <time>2018-12-27T15:28:30Z</time>
      </trkpt>
      <trkpt lat="48.10006" lon="-4.20385">
        <ele>131</ele>
        <time>2018-12-27T15:28:47Z</time>
      </trkpt>
      <trkpt lat="48.10021" lon="-4.20361">
        <ele>130</ele>
        <time>2018-12-27T15:29:07Z</time>
      </trkpt>
      <trkpt lat="48.10032" lon="-4.20328">
        <ele>128</ele>
        <time>2018-12-27T15:29:23Z</time>
      </trkpt>
      <trkpt lat="48.10039" lon="-4.20299">
        <ele>127</ele>
        <time>2018-12-27T15:29:39Z</time>
      </trkpt>
      <trkpt lat="48.10039" lon="-4.2028">
        <ele>127</ele>
        <time>2018-12-27T15:29:50Z</time>
      </trkpt>
      <trkpt lat="48.10042" lon="-4.2027">
        <ele>126</ele>
        <time>2018-12-27T15:29:56Z</time>
      </trkpt>
      <trkpt lat="48.10041" lon="-4.20265">
        <ele>126</ele>
        <time>2018-12-27T15:29:59Z</time>
      </trkpt>
      <trkpt lat="48.10045" lon="-4.20241">
        <ele>124</ele>
        <time>2018-12-27T15:30:12Z</time>
      </trkpt>
      <trkpt lat="48.1005" lon="-4.20233">
        <ele>123</ele>
        <time>2018-12-27T15:30:18Z</time>
      </trkpt>
      <trkpt lat="48.10054" lon="-4.20237">
        <ele>123</ele>
        <time>2018-12-27T15:30:26Z</time>
      </trkpt>
      <trkpt lat="48.10057" lon="-4.20242">
        <ele>123</ele>
        <time>2018-12-27T15:30:33Z</time>
      </trkpt>
      <trkpt lat="48.10059" lon="-4.20237">
        <ele>123</ele>
        <time>2018-12-27T15:30:54Z</time>
      </trkpt>
      <trkpt lat="48.10059" lon="-4.20236">
        <ele>123</ele>
        <time>2018-12-27T15:30:55Z</time>
      </trkpt>
      <trkpt lat="48.10061" lon="-4.20216">
        <ele>122</ele>
        <time>2018-12-27T15:31:10Z</time>
      </trkpt>
      <trkpt lat="48.10044" lon="-4.20184">
        <ele>123</ele>
        <time>2018-12-27T15:31:30Z</time>
      </trkpt>
      <trkpt lat="48.10032" lon="-4.20144">
        <ele>123</ele>
        <time>2018-12-27T15:31:53Z</time>
      </trkpt>
      <trkpt lat="48.10026" lon="-4.20121">
        <ele>123</ele>
        <time>2018-12-27T15:32:07Z</time>
      </trkpt>
      <trkpt lat="48.10019" lon="-4.20097">
        <ele>124</ele>
        <time>2018-12-27T15:32:20Z</time>
      </trkpt>
      <trkpt lat="48.1002" lon="-4.2009">
        <ele>124</ele>
        <time>2018-12-27T15:32:25Z</time>
      </trkpt>
      <trkpt lat="48.10031" lon="-4.20081">
        <ele>124</ele>
        <time>2018-12-27T15:32:39Z</time>
      </trkpt>
      <trkpt lat="48.10032" lon="-4.20081">
        <ele>124</ele>
        <time>2018-12-27T15:32:40Z</time>
      </trkpt>
      <trkpt lat="48.10053" lon="-4.20082">
        <ele>123</ele>
        <time>2018-12-27T15:32:54Z</time>
      </trkpt>
      <trkpt lat="48.10073" lon="-4.20077">
        <ele>121</ele>
        <time>2018-12-27T15:33:12Z</time>
      </trkpt>
      <trkpt lat="48.10085" lon="-4.20074">
        <ele>119</ele>
        <time>2018-12-27T15:33:29Z</time>
      </trkpt>
      <trkpt lat="48.10086" lon="-4.20056">
        <ele>120</ele>
        <time>2018-12-27T15:33:49Z</time>
      </trkpt>
      <trkpt lat="48.10087" lon="-4.20025">
        <ele>121</ele>
        <time>2018-12-27T15:34:07Z</time>
      </trkpt>
      <trkpt lat="48.10088" lon="-4.20022">
        <ele>121</ele>
        <time>2018-12-27T15:34:09Z</time>
      </trkpt>
      <trkpt lat="48.10098" lon="-4.19998">
        <ele>123</ele>
        <time>2018-12-27T15:34:22Z</time>
      </trkpt>
      <trkpt lat="48.101" lon="-4.19987">
        <ele>123</ele>
        <time>2018-12-27T15:34:28Z</time>
      </trkpt>
      <trkpt lat="48.101" lon="-4.19973">
        <ele>123</ele>
        <time>2018-12-27T15:34:36Z</time>
      </trkpt>
      <trkpt lat="48.10099" lon="-4.19966">
        <ele>124</ele>
        <time>2018-12-27T15:34:40Z</time>
      </trkpt>
      <trkpt lat="48.10093" lon="-4.19943">
        <ele>124</ele>
        <time>2018-12-27T15:34:55Z</time>
      </trkpt>
      <trkpt lat="48.10095" lon="-4.19909">
        <ele>126</ele>
        <time>2018-12-27T15:35:18Z</time>
      </trkpt>
      <trkpt lat="48.10099" lon="-4.19892">
        <ele>127</ele>
        <time>2018-12-27T15:35:29Z</time>
      </trkpt>
      <trkpt lat="48.10105" lon="-4.19867">
        <ele>129</ele>
        <time>2018-12-27T15:35:43Z</time>
      </trkpt>
      <trkpt lat="48.10106" lon="-4.19865">
        <ele>129</ele>
        <time>2018-12-27T15:35:44Z</time>
      </trkpt>
      <trkpt lat="48.10113" lon="-4.19845">
        <ele>129</ele>
        <time>2018-12-27T15:35:56Z</time>
      </trkpt>
      <trkpt lat="48.1012" lon="-4.19832">
        <ele>133</ele>
        <time>2018-12-27T15:36:07Z</time>
      </trkpt>
      <trkpt lat="48.10125" lon="-4.19821">
        <ele>133</ele>
        <time>2018-12-27T15:36:16Z</time>
      </trkpt>
      <trkpt lat="48.10139" lon="-4.19786">
        <ele>134</ele>
        <time>2018-12-27T15:36:39Z</time>
      </trkpt>
      <trkpt lat="48.10148" lon="-4.19767">
        <ele>134</ele>
        <time>2018-12-27T15:36:57Z</time>
      </trkpt>
      <trkpt lat="48.10149" lon="-4.19764">
        <ele>134</ele>
        <time>2018-12-27T15:37:07Z</time>
      </trkpt>
      <trkpt lat="48.10158" lon="-4.19756">
        <ele>134</ele>
        <time>2018-12-27T15:37:32Z</time>
      </trkpt>
      <trkpt lat="48.10168" lon="-4.19737">
        <ele>134</ele>
        <time>2018-12-27T15:38:04Z</time>
      </trkpt>
      <trkpt lat="48.10189" lon="-4.19706">
        <ele>134</ele>
        <time>2018-12-27T15:38:27Z</time>
      </trkpt>
      <trkpt lat="48.10198" lon="-4.19686">
        <ele>134</ele>
        <time>2018-12-27T15:38:39Z</time>
      </trkpt>
      <trkpt lat="48.10212" lon="-4.19648">
        <ele>135</ele>
        <time>2018-12-27T15:39:03Z</time>
      </trkpt>
      <trkpt lat="48.10225" lon="-4.19618">
        <ele>135</ele>
        <time>2018-12-27T15:39:25Z</time>
      </trkpt>
      <trkpt lat="48.10235" lon="-4.19582">
        <ele>135</ele>
        <time>2018-12-27T15:39:48Z</time>
      </trkpt>
      <trkpt lat="48.10242" lon="-4.19549">
        <ele>136</ele>
        <time>2018-12-27T15:40:09Z</time>
      </trkpt>
      <trkpt lat="48.10236" lon="-4.19491">
        <ele>136</ele>
        <time>2018-12-27T15:40:33Z</time>
      </trkpt>
      <trkpt lat="48.10236" lon="-4.19464">
        <ele>137</ele>
        <time>2018-12-27T15:40:45Z</time>
      </trkpt>
      <trkpt lat="48.10238" lon="-4.19444">
        <ele>136</ele>
        <time>2018-12-27T15:40:57Z</time>
      </trkpt>
      <trkpt lat="48.10253" lon="-4.19399">
        <ele>132</ele>
        <time>2018-12-27T15:41:20Z</time>
      </trkpt>
      <trkpt lat="48.10272" lon="-4.19369">
        <ele>131</ele>
        <time>2018-12-27T15:41:41Z</time>
      </trkpt>
      <trkpt lat="48.10278" lon="-4.19352">
        <ele>131</ele>
        <time>2018-12-27T15:41:59Z</time>
      </trkpt>
      <trkpt lat="48.10283" lon="-4.19329">
        <ele>130</ele>
        <time>2018-12-27T15:42:17Z</time>
      </trkpt>
      <trkpt lat="48.10279" lon="-4.1932">
        <ele>130</ele>
        <time>2018-12-27T15:42:34Z</time>
      </trkpt>
      <trkpt lat="48.10278" lon="-4.19316">
        <ele>130</ele>
        <time>2018-12-27T15:43:05Z</time>
      </trkpt>
      <trkpt lat="48.10264" lon="-4.19299">
        <ele>131</ele>
        <time>2018-12-27T15:43:21Z</time>
      </trkpt>
      <trkpt lat="48.10255" lon="-4.19287">
        <ele>131</ele>
        <time>2018-12-27T15:43:34Z</time>
      </trkpt>
      <trkpt lat="48.10241" lon="-4.19267">
        <ele>137</ele>
        <time>2018-12-27T15:43:50Z</time>
      </trkpt>
      <trkpt lat="48.10229" lon="-4.19241">
        <ele>139</ele>
        <time>2018-12-27T15:44:08Z</time>
      </trkpt>
      <trkpt lat="48.10217" lon="-4.19221">
        <ele>141</ele>
        <time>2018-12-27T15:44:20Z</time>
      </trkpt>
      <trkpt lat="48.10216" lon="-4.19213">
        <ele>141</ele>
        <time>2018-12-27T15:44:25Z</time>
      </trkpt>
      <trkpt lat="48.10219" lon="-4.19199">
        <ele>141</ele>
        <time>2018-12-27T15:44:33Z</time>
      </trkpt>
      <trkpt lat="48.10225" lon="-4.19178">
        <ele>140</ele>
        <time>2018-12-27T15:44:45Z</time>
      </trkpt>
      <trkpt lat="48.10236" lon="-4.19152">
        <ele>139</ele>
        <time>2018-12-27T15:45:01Z</time>
      </trkpt>
      <trkpt lat="48.10239" lon="-4.19141">
        <ele>139</ele>
        <time>2018-12-27T15:45:09Z</time>
      </trkpt>
      <trkpt lat="48.10247" lon="-4.19124">
        <ele>139</ele>
        <time>2018-12-27T15:45:19Z</time>
      </trkpt>
      <trkpt lat="48.10251" lon="-4.19116">
        <ele>132</ele>
        <time>2018-12-27T15:45:24Z</time>
      </trkpt>
      <trkpt lat="48.10257" lon="-4.1909">
        <ele>133</ele>
        <time>2018-12-27T15:45:42Z</time>
      </trkpt>
      <trkpt lat="48.10267" lon="-4.19072">
        <ele>135</ele>
        <time>2018-12-27T15:45:55Z</time>
      </trkpt>
      <trkpt lat="48.10285" lon="-4.19051">
        <ele>135</ele>
        <time>2018-12-27T15:46:10Z</time>
      </trkpt>
      <trkpt lat="48.103" lon="-4.19045">
        <ele>134</ele>
        <time>2018-12-27T15:46:22Z</time>
      </trkpt>
      <trkpt lat="48.1032" lon="-4.19044">
        <ele>133</ele>
        <time>2018-12-27T15:46:36Z</time>
      </trkpt>
      <trkpt lat="48.10341" lon="-4.19039">
        <ele>126</ele>
        <time>2018-12-27T15:46:50Z</time>
      </trkpt>
      <trkpt lat="48.10354" lon="-4.19033">
        <ele>125</ele>
        <time>2018-12-27T15:47:01Z</time>
      </trkpt>
      <trkpt lat="48.10375" lon="-4.1902">
        <ele>124</ele>
        <time>2018-12-27T15:47:15Z</time>
      </trkpt>
      <trkpt lat="48.10384" lon="-4.19016">
        <ele>123</ele>
        <time>2018-12-27T15:47:25Z</time>
      </trkpt>
      <trkpt lat="48.10404" lon="-4.19002">
        <ele>121</ele>
        <time>2018-12-27T15:47:43Z</time>
      </trkpt>
      <trkpt lat="48.10416" lon="-4.18997">
        <ele>120</ele>
        <time>2018-12-27T15:47:54Z</time>
      </trkpt>
      <trkpt lat="48.10431" lon="-4.1899">
        <ele>119</ele>
        <time>2018-12-27T15:48:07Z</time>
      </trkpt>
      <trkpt lat="48.10435" lon="-4.18989">
        <ele>119</ele>
        <time>2018-12-27T15:48:10Z</time>
      </trkpt>
      <trkpt lat="48.10436" lon="-4.18988">
        <ele>119</ele>
        <time>2018-12-27T15:48:11Z</time>
      </trkpt>
      <trkpt lat="48.10452" lon="-4.18977">
        <ele>118</ele>
        <time>2018-12-27T15:48:26Z</time>
      </trkpt>
      <trkpt lat="48.10456" lon="-4.1897">
        <ele>118</ele>
        <time>2018-12-27T15:48:32Z</time>
      </trkpt>
      <trkpt lat="48.10456" lon="-4.18969">
        <ele>118</ele>
        <time>2018-12-27T15:48:33Z</time>
      </trkpt>
      <trkpt lat="48.10457" lon="-4.18969">
        <ele>118</ele>
        <time>2018-12-27T15:48:34Z</time>
      </trkpt>
      <trkpt lat="48.10458" lon="-4.18968">
        <ele>118</ele>
        <time>2018-12-27T15:48:35Z</time>
      </trkpt>
      <trkpt lat="48.10459" lon="-4.18967">
        <ele>118</ele>
        <time>2018-12-27T15:48:36Z</time>
      </trkpt>
      <trkpt lat="48.1046" lon="-4.18966">
        <ele>118</ele>
        <time>2018-12-27T15:48:37Z</time>
      </trkpt>
      <trkpt lat="48.10462" lon="-4.18966">
        <ele>118</ele>
        <time>2018-12-27T15:48:38Z</time>
      </trkpt>
      <trkpt lat="48.10463" lon="-4.18964">
        <ele>118</ele>
        <time>2018-12-27T15:48:39Z</time>
      </trkpt>
      <trkpt lat="48.10464" lon="-4.18964">
        <ele>118</ele>
        <time>2018-12-27T15:48:40Z</time>
      </trkpt>
      <trkpt lat="48.10465" lon="-4.18963">
        <ele>118</ele>
        <time>2018-12-27T15:48:41Z</time>
      </trkpt>
      <trkpt lat="48.10466" lon="-4.18962">
        <ele>118</ele>
        <time>2018-12-27T15:48:42Z</time>
      </trkpt>
      <trkpt lat="48.10482" lon="-4.18952">
        <ele>118</ele>
        <time>2018-12-27T15:48:55Z</time>
      </trkpt>
      <trkpt lat="48.10491" lon="-4.18944">
        <ele>118</ele>
        <time>2018-12-27T15:49:05Z</time>
      </trkpt>
      <trkpt lat="48.10498" lon="-4.18928">
        <ele>117</ele>
        <time>2018-12-27T15:49:18Z</time>
      </trkpt>
      <trkpt lat="48.10515" lon="-4.189">
        <ele>115</ele>
        <time>2018-12-27T15:49:39Z</time>
      </trkpt>
      <trkpt lat="48.1052" lon="-4.18888">
        <ele>115</ele>
        <time>2018-12-27T15:49:47Z</time>
      </trkpt>
      <trkpt lat="48.1053" lon="-4.18863">
        <ele>116</ele>
        <time>2018-12-27T15:50:02Z</time>
      </trkpt>
      <trkpt lat="48.10533" lon="-4.18856">
        <ele>116</ele>
        <time>2018-12-27T15:50:05Z</time>
      </trkpt>
      <trkpt lat="48.10542" lon="-4.18832">
        <ele>119</ele>
        <time>2018-12-27T15:50:20Z</time>
      </trkpt>
      <trkpt lat="48.10549" lon="-4.18812">
        <ele>119</ele>
        <time>2018-12-27T15:50:34Z</time>
      </trkpt>
      <trkpt lat="48.10553" lon="-4.18799">
        <ele>119</ele>
        <time>2018-12-27T15:50:40Z</time>
      </trkpt>
      <trkpt lat="48.10555" lon="-4.18771">
        <ele>120</ele>
        <time>2018-12-27T15:50:55Z</time>
      </trkpt>
      <trkpt lat="48.1057" lon="-4.18753">
        <ele>119</ele>
        <time>2018-12-27T15:51:10Z</time>
      </trkpt>
      <trkpt lat="48.10571" lon="-4.1875">
        <ele>120</ele>
        <time>2018-12-27T15:51:13Z</time>
      </trkpt>
      <trkpt lat="48.10575" lon="-4.18744">
        <ele>120</ele>
        <time>2018-12-27T15:51:19Z</time>
      </trkpt>
      <trkpt lat="48.10579" lon="-4.18737">
        <ele>120</ele>
        <time>2018-12-27T15:51:28Z</time>
      </trkpt>
      <trkpt lat="48.10591" lon="-4.1871">
        <ele>115</ele>
        <time>2018-12-27T15:51:47Z</time>
      </trkpt>
      <trkpt lat="48.10597" lon="-4.1869">
        <ele>115</ele>
        <time>2018-12-27T15:52:01Z</time>
      </trkpt>
      <trkpt lat="48.10604" lon="-4.18666">
        <ele>116</ele>
        <time>2018-12-27T15:52:16Z</time>
      </trkpt>
      <trkpt lat="48.10609" lon="-4.18641">
        <ele>115</ele>
        <time>2018-12-27T15:52:30Z</time>
      </trkpt>
      <trkpt lat="48.10611" lon="-4.18636">
        <ele>115</ele>
        <time>2018-12-27T15:52:32Z</time>
      </trkpt>
      <trkpt lat="48.10611" lon="-4.18632">
        <ele>115</ele>
        <time>2018-12-27T15:52:34Z</time>
      </trkpt>
      <trkpt lat="48.10612" lon="-4.18629">
        <ele>115</ele>
        <time>2018-12-27T15:52:36Z</time>
      </trkpt>
      <trkpt lat="48.10614" lon="-4.18626">
        <ele>115</ele>
        <time>2018-12-27T15:52:39Z</time>
      </trkpt>
      <trkpt lat="48.10616" lon="-4.18621">
        <ele>115</ele>
        <time>2018-12-27T15:52:42Z</time>
      </trkpt>
      <trkpt lat="48.10618" lon="-4.18614">
        <ele>115</ele>
        <time>2018-12-27T15:52:46Z</time>
      </trkpt>
      <trkpt lat="48.1063" lon="-4.18588">
        <ele>115</ele>
        <time>2018-12-27T15:53:00Z</time>
      </trkpt>
      <trkpt lat="48.10638" lon="-4.1857">
        <ele>115</ele>
        <time>2018-12-27T15:53:12Z</time>
      </trkpt>
      <trkpt lat="48.10649" lon="-4.18542">
        <ele>116</ele>
        <time>2018-12-27T15:53:30Z</time>
      </trkpt>
      <trkpt lat="48.10656" lon="-4.18524">
        <ele>116</ele>
        <time>2018-12-27T15:53:40Z</time>
      </trkpt>
      <trkpt lat="48.1066" lon="-4.18518">
        <ele>115</ele>
        <time>2018-12-27T15:53:44Z</time>
      </trkpt>
      <trkpt lat="48.10672" lon="-4.1849">
        <ele>113</ele>
        <time>2018-12-27T15:54:01Z</time>
      </trkpt>
      <trkpt lat="48.1068" lon="-4.1847">
        <ele>113</ele>
        <time>2018-12-27T15:54:13Z</time>
      </trkpt>
      <trkpt lat="48.10692" lon="-4.18445">
        <ele>113</ele>
        <time>2018-12-27T15:54:29Z</time>
      </trkpt>
      <trkpt lat="48.10704" lon="-4.18417">
        <ele>114</ele>
        <time>2018-12-27T15:54:45Z</time>
      </trkpt>
      <trkpt lat="48.10715" lon="-4.18382">
        <ele>113</ele>
        <time>2018-12-27T15:55:03Z</time>
      </trkpt>
      <trkpt lat="48.10714" lon="-4.18348">
        <ele>113</ele>
        <time>2018-12-27T15:55:17Z</time>
      </trkpt>
      <trkpt lat="48.10715" lon="-4.18314">
        <ele>114</ele>
        <time>2018-12-27T15:55:35Z</time>
      </trkpt>
      <trkpt lat="48.10713" lon="-4.1828">
        <ele>114</ele>
        <time>2018-12-27T15:55:53Z</time>
      </trkpt>
      <trkpt lat="48.10704" lon="-4.18245">
        <ele>116</ele>
        <time>2018-12-27T15:56:11Z</time>
      </trkpt>
      <trkpt lat="48.10701" lon="-4.18231">
        <ele>116</ele>
        <time>2018-12-27T15:56:19Z</time>
      </trkpt>
      <trkpt lat="48.10694" lon="-4.18207">
        <ele>116</ele>
        <time>2018-12-27T15:56:34Z</time>
      </trkpt>
      <trkpt lat="48.10687" lon="-4.1819">
        <ele>117</ele>
        <time>2018-12-27T15:56:45Z</time>
      </trkpt>
      <trkpt lat="48.10687" lon="-4.18187">
        <ele>117</ele>
        <time>2018-12-27T15:56:47Z</time>
      </trkpt>
      <trkpt lat="48.10688" lon="-4.18169">
        <ele>118</ele>
        <time>2018-12-27T15:56:57Z</time>
      </trkpt>
      <trkpt lat="48.10689" lon="-4.18158">
        <ele>120</ele>
        <time>2018-12-27T15:57:02Z</time>
      </trkpt>
      <trkpt lat="48.10698" lon="-4.18141">
        <ele>119</ele>
        <time>2018-12-27T15:57:13Z</time>
      </trkpt>
      <trkpt lat="48.10712" lon="-4.18115">
        <ele>119</ele>
        <time>2018-12-27T15:57:29Z</time>
      </trkpt>
      <trkpt lat="48.10713" lon="-4.18091">
        <ele>119</ele>
        <time>2018-12-27T15:57:42Z</time>
      </trkpt>
      <trkpt lat="48.10713" lon="-4.18082">
        <ele>121</ele>
        <time>2018-12-27T15:57:47Z</time>
      </trkpt>
      <trkpt lat="48.1071" lon="-4.18072">
        <ele>122</ele>
        <time>2018-12-27T15:58:02Z</time>
      </trkpt>
      <trkpt lat="48.10708" lon="-4.18071">
        <ele>122</ele>
        <time>2018-12-27T15:58:06Z</time>
      </trkpt>
      <trkpt lat="48.10706" lon="-4.18068">
        <ele>122</ele>
        <time>2018-12-27T15:58:27Z</time>
      </trkpt>
      <trkpt lat="48.10697" lon="-4.18055">
        <ele>123</ele>
        <time>2018-12-27T15:58:33Z</time>
      </trkpt>
      <trkpt lat="48.10696" lon="-4.18045">
        <ele>123</ele>
        <time>2018-12-27T15:58:39Z</time>
      </trkpt>
      <trkpt lat="48.10683" lon="-4.18025">
        <ele>124</ele>
        <time>2018-12-27T15:58:55Z</time>
      </trkpt>
      <trkpt lat="48.10683" lon="-4.17986">
        <ele>125</ele>
        <time>2018-12-27T15:59:22Z</time>
      </trkpt>
      <trkpt lat="48.10686" lon="-4.17967">
        <ele>124</ele>
        <time>2018-12-27T15:59:30Z</time>
      </trkpt>
      <trkpt lat="48.10688" lon="-4.17957">
        <ele>123</ele>
        <time>2018-12-27T15:59:37Z</time>
      </trkpt>
      <trkpt lat="48.10691" lon="-4.17952">
        <ele>123</ele>
        <time>2018-12-27T15:59:40Z</time>
      </trkpt>
      <trkpt lat="48.10695" lon="-4.17938">
        <ele>123</ele>
        <time>2018-12-27T15:59:49Z</time>
      </trkpt>
      <trkpt lat="48.10697" lon="-4.17919">
        <ele>123</ele>
        <time>2018-12-27T15:59:58Z</time>
      </trkpt>
      <trkpt lat="48.107" lon="-4.17912">
        <ele>124</ele>
        <time>2018-12-27T16:00:03Z</time>
      </trkpt>
      <trkpt lat="48.10709" lon="-4.17892">
        <ele>123</ele>
        <time>2018-12-27T16:00:13Z</time>
      </trkpt>
      <trkpt lat="48.10711" lon="-4.17887">
        <ele>123</ele>
        <time>2018-12-27T16:00:16Z</time>
      </trkpt>
      <trkpt lat="48.10713" lon="-4.1788">
        <ele>123</ele>
        <time>2018-12-27T16:00:20Z</time>
      </trkpt>
      <trkpt lat="48.10719" lon="-4.17847">
        <ele>124</ele>
        <time>2018-12-27T16:00:37Z</time>
      </trkpt>
      <trkpt lat="48.10727" lon="-4.17815">
        <ele>125</ele>
        <time>2018-12-27T16:00:55Z</time>
      </trkpt>
      <trkpt lat="48.10729" lon="-4.17792">
        <ele>126</ele>
        <time>2018-12-27T16:01:07Z</time>
      </trkpt>
      <trkpt lat="48.1073" lon="-4.1779">
        <ele>126</ele>
        <time>2018-12-27T16:01:08Z</time>
      </trkpt>
      <trkpt lat="48.10732" lon="-4.17774">
        <ele>126</ele>
        <time>2018-12-27T16:01:17Z</time>
      </trkpt>
      <trkpt lat="48.10733" lon="-4.17766">
        <ele>126</ele>
        <time>2018-12-27T16:01:21Z</time>
      </trkpt>
      <trkpt lat="48.10742" lon="-4.17745">
        <ele>126</ele>
        <time>2018-12-27T16:01:34Z</time>
      </trkpt>
      <trkpt lat="48.1075" lon="-4.17728">
        <ele>127</ele>
        <time>2018-12-27T16:01:47Z</time>
      </trkpt>
      <trkpt lat="48.1076" lon="-4.17704">
        <ele>126</ele>
        <time>2018-12-27T16:02:02Z</time>
      </trkpt>
      <trkpt lat="48.10764" lon="-4.17675">
        <ele>127</ele>
        <time>2018-12-27T16:02:19Z</time>
      </trkpt>
      <trkpt lat="48.10769" lon="-4.17646">
        <ele>129</ele>
        <time>2018-12-27T16:02:35Z</time>
      </trkpt>
      <trkpt lat="48.10767" lon="-4.17615">
        <ele>130</ele>
        <time>2018-12-27T16:02:51Z</time>
      </trkpt>
      <trkpt lat="48.10766" lon="-4.17586">
        <ele>130</ele>
        <time>2018-12-27T16:03:12Z</time>
      </trkpt>
      <trkpt lat="48.10767" lon="-4.17543">
        <ele>133</ele>
        <time>2018-12-27T16:03:36Z</time>
      </trkpt>
      <trkpt lat="48.10771" lon="-4.17508">
        <ele>133</ele>
        <time>2018-12-27T16:03:53Z</time>
      </trkpt>
      <trkpt lat="48.10772" lon="-4.17478">
        <ele>135</ele>
        <time>2018-12-27T16:04:07Z</time>
      </trkpt>
      <trkpt lat="48.10772" lon="-4.1747">
        <ele>135</ele>
        <time>2018-12-27T16:04:11Z</time>
      </trkpt>
      <trkpt lat="48.10774" lon="-4.17457">
        <ele>136</ele>
        <time>2018-12-27T16:04:17Z</time>
      </trkpt>
      <trkpt lat="48.10773" lon="-4.17446">
        <ele>136</ele>
        <time>2018-12-27T16:04:21Z</time>
      </trkpt>
      <trkpt lat="48.10777" lon="-4.17423">
        <ele>136</ele>
        <time>2018-12-27T16:04:33Z</time>
      </trkpt>
      <trkpt lat="48.10776" lon="-4.17422">
        <ele>136</ele>
        <time>2018-12-27T16:04:34Z</time>
      </trkpt>
      <trkpt lat="48.10776" lon="-4.17421">
        <ele>136</ele>
        <time>2018-12-27T16:04:35Z</time>
      </trkpt>
      <trkpt lat="48.10776" lon="-4.17419">
        <ele>136</ele>
        <time>2018-12-27T16:04:36Z</time>
      </trkpt>
      <trkpt lat="48.10777" lon="-4.17417">
        <ele>136</ele>
        <time>2018-12-27T16:04:37Z</time>
      </trkpt>
      <trkpt lat="48.10781" lon="-4.17401">
        <ele>138</ele>
        <time>2018-12-27T16:04:46Z</time>
      </trkpt>
      <trkpt lat="48.10782" lon="-4.17399">
        <ele>138</ele>
        <time>2018-12-27T16:04:47Z</time>
      </trkpt>
      <trkpt lat="48.10787" lon="-4.17364">
        <ele>138</ele>
        <time>2018-12-27T16:05:00Z</time>
      </trkpt>
      <trkpt lat="48.10781" lon="-4.17348">
        <ele>138</ele>
        <time>2018-12-27T16:05:14Z</time>
      </trkpt>
      <trkpt lat="48.10781" lon="-4.17347">
        <ele>138</ele>
        <time>2018-12-27T16:05:15Z</time>
      </trkpt>
      <trkpt lat="48.10785" lon="-4.17343">
        <ele>138</ele>
        <time>2018-12-27T16:05:19Z</time>
      </trkpt>
      <trkpt lat="48.10785" lon="-4.17341">
        <ele>138</ele>
        <time>2018-12-27T16:05:20Z</time>
      </trkpt>
      <trkpt lat="48.10785" lon="-4.17339">
        <ele>138</ele>
        <time>2018-12-27T16:05:21Z</time>
      </trkpt>
      <trkpt lat="48.10785" lon="-4.17336">
        <ele>138</ele>
        <time>2018-12-27T16:05:23Z</time>
      </trkpt>
      <trkpt lat="48.10793" lon="-4.17315">
        <ele>139</ele>
        <time>2018-12-27T16:05:39Z</time>
      </trkpt>
      <trkpt lat="48.10796" lon="-4.17282">
        <ele>140</ele>
        <time>2018-12-27T16:05:59Z</time>
      </trkpt>
      <trkpt lat="48.10798" lon="-4.17265">
        <ele>140</ele>
        <time>2018-12-27T16:06:09Z</time>
      </trkpt>
      <trkpt lat="48.10798" lon="-4.17264">
        <ele>140</ele>
        <time>2018-12-27T16:06:10Z</time>
      </trkpt>
      <trkpt lat="48.10799" lon="-4.17262">
        <ele>140</ele>
        <time>2018-12-27T16:06:11Z</time>
      </trkpt>
      <trkpt lat="48.10798" lon="-4.1726">
        <ele>140</ele>
        <time>2018-12-27T16:06:12Z</time>
      </trkpt>
      <trkpt lat="48.10799" lon="-4.17258">
        <ele>140</ele>
        <time>2018-12-27T16:06:13Z</time>
      </trkpt>
      <trkpt lat="48.10799" lon="-4.17256">
        <ele>140</ele>
        <time>2018-12-27T16:06:14Z</time>
      </trkpt>
      <trkpt lat="48.108" lon="-4.17255">
        <ele>140</ele>
        <time>2018-12-27T16:06:15Z</time>
      </trkpt>
      <trkpt lat="48.10801" lon="-4.17253">
        <ele>140</ele>
        <time>2018-12-27T16:06:16Z</time>
      </trkpt>
      <trkpt lat="48.10801" lon="-4.17251">
        <ele>140</ele>
        <time>2018-12-27T16:06:17Z</time>
      </trkpt>
      <trkpt lat="48.10802" lon="-4.17249">
        <ele>141</ele>
        <time>2018-12-27T16:06:18Z</time>
      </trkpt>
      <trkpt lat="48.10803" lon="-4.17247">
        <ele>141</ele>
        <time>2018-12-27T16:06:19Z</time>
      </trkpt>
      <trkpt lat="48.10803" lon="-4.17245">
        <ele>141</ele>
        <time>2018-12-27T16:06:20Z</time>
      </trkpt>
      <trkpt lat="48.10811" lon="-4.17211">
        <ele>141</ele>
        <time>2018-12-27T16:06:36Z</time>
      </trkpt>
      <trkpt lat="48.10817" lon="-4.17184">
        <ele>141</ele>
        <time>2018-12-27T16:06:49Z</time>
      </trkpt>
      <trkpt lat="48.10829" lon="-4.17149">
        <ele>141</ele>
        <time>2018-12-27T16:07:06Z</time>
      </trkpt>
      <trkpt lat="48.10829" lon="-4.17143">
        <ele>141</ele>
        <time>2018-12-27T16:07:10Z</time>
      </trkpt>
      <trkpt lat="48.10828" lon="-4.17134">
        <ele>141</ele>
        <time>2018-12-27T16:07:16Z</time>
      </trkpt>
      <trkpt lat="48.10828" lon="-4.17132">
        <ele>141</ele>
        <time>2018-12-27T16:07:17Z</time>
      </trkpt>
      <trkpt lat="48.10828" lon="-4.1713">
        <ele>141</ele>
        <time>2018-12-27T16:07:18Z</time>
      </trkpt>
      <trkpt lat="48.10828" lon="-4.17129">
        <ele>141</ele>
        <time>2018-12-27T16:07:19Z</time>
      </trkpt>
      <trkpt lat="48.10833" lon="-4.17095">
        <ele>141</ele>
        <time>2018-12-27T16:07:37Z</time>
      </trkpt>
      <trkpt lat="48.10835" lon="-4.17079">
        <ele>140</ele>
        <time>2018-12-27T16:07:46Z</time>
      </trkpt>
      <trkpt lat="48.10835" lon="-4.17078">
        <ele>139</ele>
        <time>2018-12-27T16:07:47Z</time>
      </trkpt>
      <trkpt lat="48.10836" lon="-4.17077">
        <ele>139</ele>
        <time>2018-12-27T16:07:48Z</time>
      </trkpt>
      <trkpt lat="48.10837" lon="-4.17076">
        <ele>139</ele>
        <time>2018-12-27T16:07:49Z</time>
      </trkpt>
      <trkpt lat="48.10838" lon="-4.17076">
        <ele>139</ele>
        <time>2018-12-27T16:07:50Z</time>
      </trkpt>
      <trkpt lat="48.10839" lon="-4.17076">
        <ele>139</ele>
        <time>2018-12-27T16:07:51Z</time>
      </trkpt>
      <trkpt lat="48.1084" lon="-4.17076">
        <ele>139</ele>
        <time>2018-12-27T16:07:52Z</time>
      </trkpt>
      <trkpt lat="48.10841" lon="-4.17077">
        <ele>139</ele>
        <time>2018-12-27T16:07:53Z</time>
      </trkpt>
      <trkpt lat="48.10859" lon="-4.17088">
        <ele>140</ele>
        <time>2018-12-27T16:08:11Z</time>
      </trkpt>
      <trkpt lat="48.10878" lon="-4.17104">
        <ele>140</ele>
        <time>2018-12-27T16:08:31Z</time>
      </trkpt>
      <trkpt lat="48.10903" lon="-4.17129">
        <ele>140</ele>
        <time>2018-12-27T16:08:56Z</time>
      </trkpt>
      <trkpt lat="48.10904" lon="-4.1713">
        <ele>140</ele>
        <time>2018-12-27T16:08:57Z</time>
      </trkpt>
      <trkpt lat="48.1091" lon="-4.17133">
        <ele>140</ele>
        <time>2018-12-27T16:09:02Z</time>
      </trkpt>
      <trkpt lat="48.10914" lon="-4.17135">
        <ele>140</ele>
        <time>2018-12-27T16:09:05Z</time>
      </trkpt>
      <trkpt lat="48.10915" lon="-4.17136">
        <ele>140</ele>
        <time>2018-12-27T16:09:06Z</time>
      </trkpt>
      <trkpt lat="48.10916" lon="-4.17138">
        <ele>140</ele>
        <time>2018-12-27T16:09:07Z</time>
      </trkpt>
      <trkpt lat="48.10918" lon="-4.1714">
        <ele>139</ele>
        <time>2018-12-27T16:09:08Z</time>
      </trkpt>
      <trkpt lat="48.10919" lon="-4.17141">
        <ele>139</ele>
        <time>2018-12-27T16:09:09Z</time>
      </trkpt>
      <trkpt lat="48.1092" lon="-4.17142">
        <ele>139</ele>
        <time>2018-12-27T16:09:10Z</time>
      </trkpt>
      <trkpt lat="48.10921" lon="-4.17143">
        <ele>139</ele>
        <time>2018-12-27T16:09:11Z</time>
      </trkpt>
      <trkpt lat="48.10923" lon="-4.17145">
        <ele>139</ele>
        <time>2018-12-27T16:09:12Z</time>
      </trkpt>
      <trkpt lat="48.10925" lon="-4.17145">
        <ele>139</ele>
        <time>2018-12-27T16:09:13Z</time>
      </trkpt>
      <trkpt lat="48.10926" lon="-4.17146">
        <ele>139</ele>
        <time>2018-12-27T16:09:14Z</time>
      </trkpt>
      <trkpt lat="48.10948" lon="-4.17129">
        <ele>139</ele>
        <time>2018-12-27T16:09:31Z</time>
      </trkpt>
      <trkpt lat="48.10967" lon="-4.17102">
        <ele>138</ele>
        <time>2018-12-27T16:09:49Z</time>
      </trkpt>
      <trkpt lat="48.10976" lon="-4.17083">
        <ele>137</ele>
        <time>2018-12-27T16:10:03Z</time>
      </trkpt>
      <trkpt lat="48.10991" lon="-4.17061">
        <ele>137</ele>
        <time>2018-12-27T16:10:18Z</time>
      </trkpt>
      <trkpt lat="48.10996" lon="-4.1705">
        <ele>137</ele>
        <time>2018-12-27T16:10:25Z</time>
      </trkpt>
      <trkpt lat="48.11013" lon="-4.17031">
        <ele>136</ele>
        <time>2018-12-27T16:10:42Z</time>
      </trkpt>
      <trkpt lat="48.11036" lon="-4.1702">
        <ele>136</ele>
        <time>2018-12-27T16:11:00Z</time>
      </trkpt>
      <trkpt lat="48.11059" lon="-4.17019">
        <ele>136</ele>
        <time>2018-12-27T16:11:17Z</time>
      </trkpt>
      <trkpt lat="48.11068" lon="-4.17022">
        <ele>137</ele>
        <time>2018-12-27T16:11:25Z</time>
      </trkpt>
      <trkpt lat="48.11072" lon="-4.17024">
        <ele>137</ele>
        <time>2018-12-27T16:11:28Z</time>
      </trkpt>
      <trkpt lat="48.11093" lon="-4.17032">
        <ele>137</ele>
        <time>2018-12-27T16:11:42Z</time>
      </trkpt>
      <trkpt lat="48.11112" lon="-4.17041">
        <ele>137</ele>
        <time>2018-12-27T16:11:57Z</time>
      </trkpt>
      <trkpt lat="48.1113" lon="-4.17054">
        <ele>137</ele>
        <time>2018-12-27T16:12:14Z</time>
      </trkpt>
      <trkpt lat="48.11148" lon="-4.17065">
        <ele>137</ele>
        <time>2018-12-27T16:12:28Z</time>
      </trkpt>
      <trkpt lat="48.11168" lon="-4.17073">
        <ele>137</ele>
        <time>2018-12-27T16:12:42Z</time>
      </trkpt>
      <trkpt lat="48.11194" lon="-4.17086">
        <ele>137</ele>
        <time>2018-12-27T16:13:01Z</time>
      </trkpt>
      <trkpt lat="48.11214" lon="-4.17098">
        <ele>136</ele>
        <time>2018-12-27T16:13:17Z</time>
      </trkpt>
      <trkpt lat="48.11232" lon="-4.1711">
        <ele>136</ele>
        <time>2018-12-27T16:13:33Z</time>
      </trkpt>
      <trkpt lat="48.11251" lon="-4.17124">
        <ele>136</ele>
        <time>2018-12-27T16:13:50Z</time>
      </trkpt>
      <trkpt lat="48.11272" lon="-4.17135">
        <ele>136</ele>
        <time>2018-12-27T16:14:07Z</time>
      </trkpt>
      <trkpt lat="48.11291" lon="-4.17144">
        <ele>136</ele>
        <time>2018-12-27T16:14:22Z</time>
      </trkpt>
      <trkpt lat="48.11303" lon="-4.17139">
        <ele>136</ele>
        <time>2018-12-27T16:14:35Z</time>
      </trkpt>
      <trkpt lat="48.11309" lon="-4.17127">
        <ele>136</ele>
        <time>2018-12-27T16:14:47Z</time>
      </trkpt>
      <trkpt lat="48.11309" lon="-4.17125">
        <ele>136</ele>
        <time>2018-12-27T16:14:58Z</time>
      </trkpt>
      <trkpt lat="48.1131" lon="-4.17124">
        <ele>136</ele>
        <time>2018-12-27T16:15:00Z</time>
      </trkpt>
      <trkpt lat="48.11311" lon="-4.17123">
        <ele>136</ele>
        <time>2018-12-27T16:15:01Z</time>
      </trkpt>
      <trkpt lat="48.11311" lon="-4.17121">
        <ele>136</ele>
        <time>2018-12-27T16:15:02Z</time>
      </trkpt>
      <trkpt lat="48.11312" lon="-4.1712">
        <ele>136</ele>
        <time>2018-12-27T16:15:03Z</time>
      </trkpt>
      <trkpt lat="48.11313" lon="-4.17118">
        <ele>136</ele>
        <time>2018-12-27T16:15:04Z</time>
      </trkpt>
      <trkpt lat="48.11313" lon="-4.17117">
        <ele>136</ele>
        <time>2018-12-27T16:15:05Z</time>
      </trkpt>
      <trkpt lat="48.1133" lon="-4.17086">
        <ele>136</ele>
        <time>2018-12-27T16:15:26Z</time>
      </trkpt>
      <trkpt lat="48.11343" lon="-4.17063">
        <ele>135</ele>
        <time>2018-12-27T16:15:40Z</time>
      </trkpt>
      <trkpt lat="48.11362" lon="-4.17039">
        <ele>134</ele>
        <time>2018-12-27T16:15:57Z</time>
      </trkpt>
      <trkpt lat="48.11375" lon="-4.17025">
        <ele>134</ele>
        <time>2018-12-27T16:16:07Z</time>
      </trkpt>
      <trkpt lat="48.11376" lon="-4.17022">
        <ele>134</ele>
        <time>2018-12-27T16:16:08Z</time>
      </trkpt>
      <trkpt lat="48.11375" lon="-4.17019">
        <ele>134</ele>
        <time>2018-12-27T16:16:09Z</time>
      </trkpt>
      <trkpt lat="48.11375" lon="-4.17017">
        <ele>134</ele>
        <time>2018-12-27T16:16:10Z</time>
      </trkpt>
      <trkpt lat="48.11375" lon="-4.17014">
        <ele>134</ele>
        <time>2018-12-27T16:16:11Z</time>
      </trkpt>
      <trkpt lat="48.11375" lon="-4.17012">
        <ele>134</ele>
        <time>2018-12-27T16:16:12Z</time>
      </trkpt>
      <trkpt lat="48.11375" lon="-4.1701">
        <ele>134</ele>
        <time>2018-12-27T16:16:13Z</time>
      </trkpt>
      <trkpt lat="48.11377" lon="-4.17007">
        <ele>134</ele>
        <time>2018-12-27T16:16:15Z</time>
      </trkpt>
      <trkpt lat="48.1138" lon="-4.17003">
        <ele>134</ele>
        <time>2018-12-27T16:16:18Z</time>
      </trkpt>
      <trkpt lat="48.11395" lon="-4.1699">
        <ele>133</ele>
        <time>2018-12-27T16:16:28Z</time>
      </trkpt>
      <trkpt lat="48.11396" lon="-4.16989">
        <ele>133</ele>
        <time>2018-12-27T16:16:29Z</time>
      </trkpt>
      <trkpt lat="48.11398" lon="-4.16978">
        <ele>134</ele>
        <time>2018-12-27T16:16:35Z</time>
      </trkpt>
      <trkpt lat="48.114" lon="-4.16976">
        <ele>134</ele>
        <time>2018-12-27T16:16:36Z</time>
      </trkpt>
      <trkpt lat="48.11402" lon="-4.16974">
        <ele>134</ele>
        <time>2018-12-27T16:16:37Z</time>
      </trkpt>
      <trkpt lat="48.11403" lon="-4.16972">
        <ele>134</ele>
        <time>2018-12-27T16:16:38Z</time>
      </trkpt>
      <trkpt lat="48.11405" lon="-4.16971">
        <ele>134</ele>
        <time>2018-12-27T16:16:39Z</time>
      </trkpt>
      <trkpt lat="48.11406" lon="-4.16969">
        <ele>134</ele>
        <time>2018-12-27T16:16:40Z</time>
      </trkpt>
      <trkpt lat="48.11417" lon="-4.16944">
        <ele>132</ele>
        <time>2018-12-27T16:16:55Z</time>
      </trkpt>
      <trkpt lat="48.1142" lon="-4.16929">
        <ele>133</ele>
        <time>2018-12-27T16:17:06Z</time>
      </trkpt>
      <trkpt lat="48.1142" lon="-4.16901">
        <ele>132</ele>
        <time>2018-12-27T16:17:20Z</time>
      </trkpt>
      <trkpt lat="48.11421" lon="-4.16896">
        <ele>131</ele>
        <time>2018-12-27T16:17:23Z</time>
      </trkpt>
      <trkpt lat="48.11417" lon="-4.16886">
        <ele>133</ele>
        <time>2018-12-27T16:17:29Z</time>
      </trkpt>
      <trkpt lat="48.11404" lon="-4.16842">
        <ele>132</ele>
        <time>2018-12-27T16:17:52Z</time>
      </trkpt>
      <trkpt lat="48.11402" lon="-4.16833">
        <ele>131</ele>
        <time>2018-12-27T16:18:04Z</time>
      </trkpt>
      <trkpt lat="48.114" lon="-4.16832">
        <ele>131</ele>
        <time>2018-12-27T16:18:15Z</time>
      </trkpt>
    </trkseg>
  </trk>
</gpx>